<?xml version="1.0" encoding="UTF-8" standalone="no" ?>
<gpx xmlns="http://www.topografix.com/GPX/1/1" xmlns:xsi="http://www.w3.org/2001/XMLSchema-instance" xsi:schemaLocation="http://www.topografix.com/GPX/1/1 http://www.topografix.com/GPX/1/1/gpx.xsd" version="1.1" creator="VisuGPX - https://www.visugpx.com">
  <metadata>
    <name>rando hauterives</name>
    <desc><![CDATA[rando vers les nouvelles eoliennes mais balisage moyen ]]></desc>
  </metadata>
  <trk>
    <name><![CDATA[rando hauterives]]></name>
    <trkseg>
      <trkpt lat="45.25507" lon="5.02938">
        <ele>300</ele>
        <time>2017-07-29T08:51:52+02:00</time>
      </trkpt>
      <trkpt lat="45.25504" lon="5.02975">
        <ele>303</ele>
        <time>2017-07-29T08:52:05+02:00</time>
      </trkpt>
      <trkpt lat="45.25501" lon="5.03007">
        <ele>301</ele>
        <time>2017-07-29T08:52:12+02:00</time>
      </trkpt>
      <trkpt lat="45.25496" lon="5.0304">
        <ele>302</ele>
        <time>2017-07-29T08:52:19+02:00</time>
      </trkpt>
      <trkpt lat="45.25483" lon="5.0307">
        <ele>302</ele>
        <time>2017-07-29T08:52:26+02:00</time>
      </trkpt>
      <trkpt lat="45.25469" lon="5.03095">
        <ele>302</ele>
        <time>2017-07-29T08:52:34+02:00</time>
      </trkpt>
      <trkpt lat="45.2545" lon="5.03116">
        <ele>303</ele>
        <time>2017-07-29T08:52:43+02:00</time>
      </trkpt>
      <trkpt lat="45.25426" lon="5.03116">
        <ele>303</ele>
        <time>2017-07-29T08:52:53+02:00</time>
      </trkpt>
      <trkpt lat="45.25403" lon="5.03122">
        <ele>304</ele>
        <time>2017-07-29T08:53:01+02:00</time>
      </trkpt>
      <trkpt lat="45.2538" lon="5.03125">
        <ele>304</ele>
        <time>2017-07-29T08:53:10+02:00</time>
      </trkpt>
      <trkpt lat="45.25356" lon="5.03128">
        <ele>304</ele>
        <time>2017-07-29T08:53:18+02:00</time>
      </trkpt>
      <trkpt lat="45.25333" lon="5.03133">
        <ele>304</ele>
        <time>2017-07-29T08:53:26+02:00</time>
      </trkpt>
      <trkpt lat="45.2531" lon="5.03144">
        <ele>306</ele>
        <time>2017-07-29T08:53:36+02:00</time>
      </trkpt>
      <trkpt lat="45.25299" lon="5.03173">
        <ele>308</ele>
        <time>2017-07-29T08:53:48+02:00</time>
      </trkpt>
      <trkpt lat="45.25308" lon="5.03204">
        <ele>309</ele>
        <time>2017-07-29T08:53:56+02:00</time>
      </trkpt>
      <trkpt lat="45.2532" lon="5.03234">
        <ele>309</ele>
        <time>2017-07-29T08:54:03+02:00</time>
      </trkpt>
      <trkpt lat="45.2534" lon="5.03253">
        <ele>309</ele>
        <time>2017-07-29T08:54:11+02:00</time>
      </trkpt>
      <trkpt lat="45.25358" lon="5.03276">
        <ele>309</ele>
        <time>2017-07-29T08:54:19+02:00</time>
      </trkpt>
      <trkpt lat="45.25376" lon="5.03297">
        <ele>310</ele>
        <time>2017-07-29T08:54:29+02:00</time>
      </trkpt>
      <trkpt lat="45.25387" lon="5.03326">
        <ele>311</ele>
        <time>2017-07-29T08:54:39+02:00</time>
      </trkpt>
      <trkpt lat="45.25403" lon="5.03354">
        <ele>312</ele>
        <time>2017-07-29T08:54:48+02:00</time>
      </trkpt>
      <trkpt lat="45.25417" lon="5.03384">
        <ele>313</ele>
        <time>2017-07-29T08:54:56+02:00</time>
      </trkpt>
      <trkpt lat="45.25431" lon="5.03411">
        <ele>313</ele>
        <time>2017-07-29T08:55:03+02:00</time>
      </trkpt>
      <trkpt lat="45.2544" lon="5.03441">
        <ele>314</ele>
        <time>2017-07-29T08:55:11+02:00</time>
      </trkpt>
      <trkpt lat="45.2545" lon="5.03471">
        <ele>313</ele>
        <time>2017-07-29T08:55:18+02:00</time>
      </trkpt>
      <trkpt lat="45.25456" lon="5.03502">
        <ele>314</ele>
        <time>2017-07-29T08:55:26+02:00</time>
      </trkpt>
      <trkpt lat="45.25463" lon="5.03534">
        <ele>314</ele>
        <time>2017-07-29T08:55:33+02:00</time>
      </trkpt>
      <trkpt lat="45.25472" lon="5.03565">
        <ele>314</ele>
        <time>2017-07-29T08:55:40+02:00</time>
      </trkpt>
      <trkpt lat="45.2548" lon="5.03598">
        <ele>314</ele>
        <time>2017-07-29T08:55:47+02:00</time>
      </trkpt>
      <trkpt lat="45.25489" lon="5.03629">
        <ele>313</ele>
        <time>2017-07-29T08:55:54+02:00</time>
      </trkpt>
      <trkpt lat="45.25503" lon="5.03659">
        <ele>313</ele>
        <time>2017-07-29T08:56:01+02:00</time>
      </trkpt>
      <trkpt lat="45.25517" lon="5.03689">
        <ele>314</ele>
        <time>2017-07-29T08:56:08+02:00</time>
      </trkpt>
      <trkpt lat="45.25522" lon="5.03722">
        <ele>315</ele>
        <time>2017-07-29T08:56:15+02:00</time>
      </trkpt>
      <trkpt lat="45.25523" lon="5.03757">
        <ele>316</ele>
        <time>2017-07-29T08:56:23+02:00</time>
      </trkpt>
      <trkpt lat="45.25527" lon="5.0379">
        <ele>319</ele>
        <time>2017-07-29T08:56:34+02:00</time>
      </trkpt>
      <trkpt lat="45.25532" lon="5.03823">
        <ele>319</ele>
        <time>2017-07-29T08:56:41+02:00</time>
      </trkpt>
      <trkpt lat="45.2554" lon="5.03857">
        <ele>321</ele>
        <time>2017-07-29T08:56:49+02:00</time>
      </trkpt>
      <trkpt lat="45.25545" lon="5.03889">
        <ele>321</ele>
        <time>2017-07-29T08:56:56+02:00</time>
      </trkpt>
      <trkpt lat="45.25552" lon="5.0392">
        <ele>321</ele>
        <time>2017-07-29T08:57:03+02:00</time>
      </trkpt>
      <trkpt lat="45.25559" lon="5.03953">
        <ele>323</ele>
        <time>2017-07-29T08:57:10+02:00</time>
      </trkpt>
      <trkpt lat="45.25547" lon="5.03919">
        <ele>325</ele>
        <time>2017-07-29T08:57:27+02:00</time>
      </trkpt>
      <trkpt lat="45.2554" lon="5.03883">
        <ele>326</ele>
        <time>2017-07-29T08:57:32+02:00</time>
      </trkpt>
      <trkpt lat="45.25533" lon="5.03852">
        <ele>326</ele>
        <time>2017-07-29T08:57:36+02:00</time>
      </trkpt>
      <trkpt lat="45.25524" lon="5.03816">
        <ele>327</ele>
        <time>2017-07-29T08:57:40+02:00</time>
      </trkpt>
      <trkpt lat="45.25519" lon="5.03775">
        <ele>327</ele>
        <time>2017-07-29T08:57:44+02:00</time>
      </trkpt>
      <trkpt lat="45.25515" lon="5.03736">
        <ele>327</ele>
        <time>2017-07-29T08:57:48+02:00</time>
      </trkpt>
      <trkpt lat="45.25506" lon="5.03699">
        <ele>328</ele>
        <time>2017-07-29T08:57:52+02:00</time>
      </trkpt>
      <trkpt lat="45.25495" lon="5.03669">
        <ele>328</ele>
        <time>2017-07-29T08:57:55+02:00</time>
      </trkpt>
      <trkpt lat="45.25484" lon="5.0364">
        <ele>328</ele>
        <time>2017-07-29T08:57:58+02:00</time>
      </trkpt>
      <trkpt lat="45.25476" lon="5.03607">
        <ele>327</ele>
        <time>2017-07-29T08:58:01+02:00</time>
      </trkpt>
      <trkpt lat="45.2547" lon="5.03575">
        <ele>326</ele>
        <time>2017-07-29T08:58:04+02:00</time>
      </trkpt>
      <trkpt lat="45.25461" lon="5.03537">
        <ele>326</ele>
        <time>2017-07-29T08:58:08+02:00</time>
      </trkpt>
      <trkpt lat="45.25452" lon="5.03502">
        <ele>326</ele>
        <time>2017-07-29T08:58:12+02:00</time>
      </trkpt>
      <trkpt lat="45.25443" lon="5.03462">
        <ele>327</ele>
        <time>2017-07-29T08:58:16+02:00</time>
      </trkpt>
      <trkpt lat="45.2543" lon="5.03425">
        <ele>327</ele>
        <time>2017-07-29T08:58:20+02:00</time>
      </trkpt>
      <trkpt lat="45.25415" lon="5.0339">
        <ele>327</ele>
        <time>2017-07-29T08:58:24+02:00</time>
      </trkpt>
      <trkpt lat="45.25398" lon="5.03357">
        <ele>327</ele>
        <time>2017-07-29T08:58:28+02:00</time>
      </trkpt>
      <trkpt lat="45.25385" lon="5.03322">
        <ele>327</ele>
        <time>2017-07-29T08:58:32+02:00</time>
      </trkpt>
      <trkpt lat="45.2537" lon="5.03288">
        <ele>327</ele>
        <time>2017-07-29T08:58:36+02:00</time>
      </trkpt>
      <trkpt lat="45.25354" lon="5.03253">
        <ele>327</ele>
        <time>2017-07-29T08:58:40+02:00</time>
      </trkpt>
      <trkpt lat="45.25335" lon="5.03229">
        <ele>325</ele>
        <time>2017-07-29T08:58:44+02:00</time>
      </trkpt>
      <trkpt lat="45.25319" lon="5.03198">
        <ele>325</ele>
        <time>2017-07-29T08:58:48+02:00</time>
      </trkpt>
      <trkpt lat="45.25311" lon="5.03168">
        <ele>325</ele>
        <time>2017-07-29T08:58:52+02:00</time>
      </trkpt>
      <trkpt lat="45.25327" lon="5.03142">
        <ele>325</ele>
        <time>2017-07-29T08:59:16+02:00</time>
      </trkpt>
      <trkpt lat="45.25349" lon="5.03129">
        <ele>324</ele>
        <time>2017-07-29T08:59:20+02:00</time>
      </trkpt>
      <trkpt lat="45.25375" lon="5.03127">
        <ele>322</ele>
        <time>2017-07-29T08:59:24+02:00</time>
      </trkpt>
      <trkpt lat="45.254" lon="5.03124">
        <ele>320</ele>
        <time>2017-07-29T08:59:28+02:00</time>
      </trkpt>
      <trkpt lat="45.25425" lon="5.03115">
        <ele>320</ele>
        <time>2017-07-29T08:59:32+02:00</time>
      </trkpt>
      <trkpt lat="45.25451" lon="5.03104">
        <ele>317</ele>
        <time>2017-07-29T08:59:36+02:00</time>
      </trkpt>
      <trkpt lat="45.25472" lon="5.03083">
        <ele>315</ele>
        <time>2017-07-29T08:59:40+02:00</time>
      </trkpt>
      <trkpt lat="45.25495" lon="5.03069">
        <ele>312</ele>
        <time>2017-07-29T08:59:44+02:00</time>
      </trkpt>
      <trkpt lat="45.2552" lon="5.03063">
        <ele>310</ele>
        <time>2017-07-29T08:59:48+02:00</time>
      </trkpt>
      <trkpt lat="45.25543" lon="5.03058">
        <ele>308</ele>
        <time>2017-07-29T08:59:52+02:00</time>
      </trkpt>
      <trkpt lat="45.25563" lon="5.0308">
        <ele>303</ele>
        <time>2017-07-29T08:59:58+02:00</time>
      </trkpt>
      <trkpt lat="45.25572" lon="5.03111">
        <ele>302</ele>
        <time>2017-07-29T09:00:03+02:00</time>
      </trkpt>
      <trkpt lat="45.2559" lon="5.0313">
        <ele>300</ele>
        <time>2017-07-29T09:00:09+02:00</time>
      </trkpt>
      <trkpt lat="45.25601" lon="5.03166">
        <ele>298</ele>
        <time>2017-07-29T09:00:14+02:00</time>
      </trkpt>
      <trkpt lat="45.25605" lon="5.03201">
        <ele>296</ele>
        <time>2017-07-29T09:00:19+02:00</time>
      </trkpt>
      <trkpt lat="45.25603" lon="5.03236">
        <ele>295</ele>
        <time>2017-07-29T09:00:25+02:00</time>
      </trkpt>
      <trkpt lat="45.25602" lon="5.03271">
        <ele>294</ele>
        <time>2017-07-29T09:00:31+02:00</time>
      </trkpt>
      <trkpt lat="45.25606" lon="5.03304">
        <ele>292</ele>
        <time>2017-07-29T09:00:38+02:00</time>
      </trkpt>
      <trkpt lat="45.25626" lon="5.03328">
        <ele>292</ele>
        <time>2017-07-29T09:00:42+02:00</time>
      </trkpt>
      <trkpt lat="45.25647" lon="5.0335">
        <ele>291</ele>
        <time>2017-07-29T09:00:48+02:00</time>
      </trkpt>
      <trkpt lat="45.25667" lon="5.03364">
        <ele>289</ele>
        <time>2017-07-29T09:00:55+02:00</time>
      </trkpt>
      <trkpt lat="45.25691" lon="5.03366">
        <ele>288</ele>
        <time>2017-07-29T09:01:01+02:00</time>
      </trkpt>
      <trkpt lat="45.25714" lon="5.03386">
        <ele>286</ele>
        <time>2017-07-29T09:01:08+02:00</time>
      </trkpt>
      <trkpt lat="45.25727" lon="5.03415">
        <ele>285</ele>
        <time>2017-07-29T09:01:14+02:00</time>
      </trkpt>
      <trkpt lat="45.25742" lon="5.03446">
        <ele>284</ele>
        <time>2017-07-29T09:01:20+02:00</time>
      </trkpt>
      <trkpt lat="45.25753" lon="5.03477">
        <ele>282</ele>
        <time>2017-07-29T09:01:26+02:00</time>
      </trkpt>
      <trkpt lat="45.25765" lon="5.03504">
        <ele>281</ele>
        <time>2017-07-29T09:01:31+02:00</time>
      </trkpt>
      <trkpt lat="45.25779" lon="5.03532">
        <ele>279</ele>
        <time>2017-07-29T09:01:36+02:00</time>
      </trkpt>
      <trkpt lat="45.25787" lon="5.03566">
        <ele>277</ele>
        <time>2017-07-29T09:01:43+02:00</time>
      </trkpt>
      <trkpt lat="45.25796" lon="5.03603">
        <ele>275</ele>
        <time>2017-07-29T09:01:50+02:00</time>
      </trkpt>
      <trkpt lat="45.25807" lon="5.03635">
        <ele>274</ele>
        <time>2017-07-29T09:01:56+02:00</time>
      </trkpt>
      <trkpt lat="45.25821" lon="5.03663">
        <ele>272</ele>
        <time>2017-07-29T09:02:03+02:00</time>
      </trkpt>
      <trkpt lat="45.25842" lon="5.03684">
        <ele>271</ele>
        <time>2017-07-29T09:02:09+02:00</time>
      </trkpt>
      <trkpt lat="45.25857" lon="5.03709">
        <ele>269</ele>
        <time>2017-07-29T09:02:14+02:00</time>
      </trkpt>
      <trkpt lat="45.25867" lon="5.0374">
        <ele>268</ele>
        <time>2017-07-29T09:02:22+02:00</time>
      </trkpt>
      <trkpt lat="45.25882" lon="5.03766">
        <ele>266</ele>
        <time>2017-07-29T09:02:32+02:00</time>
      </trkpt>
      <trkpt lat="45.2589" lon="5.03797">
        <ele>265</ele>
        <time>2017-07-29T09:02:41+02:00</time>
      </trkpt>
      <trkpt lat="45.25901" lon="5.03826">
        <ele>264</ele>
        <time>2017-07-29T09:02:48+02:00</time>
      </trkpt>
      <trkpt lat="45.25913" lon="5.03857">
        <ele>262</ele>
        <time>2017-07-29T09:02:53+02:00</time>
      </trkpt>
      <trkpt lat="45.25925" lon="5.03887">
        <ele>261</ele>
        <time>2017-07-29T09:03:00+02:00</time>
      </trkpt>
      <trkpt lat="45.25936" lon="5.03919">
        <ele>261</ele>
        <time>2017-07-29T09:03:05+02:00</time>
      </trkpt>
      <trkpt lat="45.25939" lon="5.03952">
        <ele>261</ele>
        <time>2017-07-29T09:03:10+02:00</time>
      </trkpt>
      <trkpt lat="45.2596" lon="5.03984">
        <ele>260</ele>
        <time>2017-07-29T09:03:18+02:00</time>
      </trkpt>
      <trkpt lat="45.25982" lon="5.03996">
        <ele>260</ele>
        <time>2017-07-29T09:03:23+02:00</time>
      </trkpt>
      <trkpt lat="45.26002" lon="5.04013">
        <ele>260</ele>
        <time>2017-07-29T09:03:28+02:00</time>
      </trkpt>
      <trkpt lat="45.26018" lon="5.04037">
        <ele>260</ele>
        <time>2017-07-29T09:03:34+02:00</time>
      </trkpt>
      <trkpt lat="45.26039" lon="5.04059">
        <ele>259</ele>
        <time>2017-07-29T09:03:41+02:00</time>
      </trkpt>
      <trkpt lat="45.26035" lon="5.04093">
        <ele>268</ele>
        <time>2017-07-29T09:03:55+02:00</time>
      </trkpt>
      <trkpt lat="45.26043" lon="5.04125">
        <ele>269</ele>
        <time>2017-07-29T09:04:01+02:00</time>
      </trkpt>
      <trkpt lat="45.26055" lon="5.04152">
        <ele>270</ele>
        <time>2017-07-29T09:04:07+02:00</time>
      </trkpt>
      <trkpt lat="45.2606" lon="5.04186">
        <ele>271</ele>
        <time>2017-07-29T09:04:14+02:00</time>
      </trkpt>
      <trkpt lat="45.26066" lon="5.0422">
        <ele>271</ele>
        <time>2017-07-29T09:04:19+02:00</time>
      </trkpt>
      <trkpt lat="45.26072" lon="5.04255">
        <ele>272</ele>
        <time>2017-07-29T09:04:24+02:00</time>
      </trkpt>
      <trkpt lat="45.26087" lon="5.04285">
        <ele>272</ele>
        <time>2017-07-29T09:04:29+02:00</time>
      </trkpt>
      <trkpt lat="45.26099" lon="5.04312">
        <ele>273</ele>
        <time>2017-07-29T09:04:33+02:00</time>
      </trkpt>
      <trkpt lat="45.26108" lon="5.04349">
        <ele>274</ele>
        <time>2017-07-29T09:04:38+02:00</time>
      </trkpt>
      <trkpt lat="45.26112" lon="5.04385">
        <ele>275</ele>
        <time>2017-07-29T09:04:43+02:00</time>
      </trkpt>
      <trkpt lat="45.26099" lon="5.04415">
        <ele>278</ele>
        <time>2017-07-29T09:04:49+02:00</time>
      </trkpt>
      <trkpt lat="45.26081" lon="5.04436">
        <ele>280</ele>
        <time>2017-07-29T09:04:57+02:00</time>
      </trkpt>
      <trkpt lat="45.2607" lon="5.0447">
        <ele>282</ele>
        <time>2017-07-29T09:05:03+02:00</time>
      </trkpt>
      <trkpt lat="45.26058" lon="5.04498">
        <ele>284</ele>
        <time>2017-07-29T09:05:08+02:00</time>
      </trkpt>
      <trkpt lat="45.26044" lon="5.04526">
        <ele>285</ele>
        <time>2017-07-29T09:05:14+02:00</time>
      </trkpt>
      <trkpt lat="45.26042" lon="5.0456">
        <ele>286</ele>
        <time>2017-07-29T09:05:24+02:00</time>
      </trkpt>
      <trkpt lat="45.26048" lon="5.04591">
        <ele>289</ele>
        <time>2017-07-29T09:05:30+02:00</time>
      </trkpt>
      <trkpt lat="45.26047" lon="5.04628">
        <ele>292</ele>
        <time>2017-07-29T09:05:36+02:00</time>
      </trkpt>
      <trkpt lat="45.26046" lon="5.04665">
        <ele>294</ele>
        <time>2017-07-29T09:05:42+02:00</time>
      </trkpt>
      <trkpt lat="45.26035" lon="5.04693">
        <ele>295</ele>
        <time>2017-07-29T09:05:49+02:00</time>
      </trkpt>
      <trkpt lat="45.26014" lon="5.04709">
        <ele>296</ele>
        <time>2017-07-29T09:05:57+02:00</time>
      </trkpt>
      <trkpt lat="45.25996" lon="5.04731">
        <ele>297</ele>
        <time>2017-07-29T09:06:03+02:00</time>
      </trkpt>
      <trkpt lat="45.25973" lon="5.04744">
        <ele>298</ele>
        <time>2017-07-29T09:06:08+02:00</time>
      </trkpt>
      <trkpt lat="45.2595" lon="5.04757">
        <ele>301</ele>
        <time>2017-07-29T09:06:13+02:00</time>
      </trkpt>
      <trkpt lat="45.25931" lon="5.04777">
        <ele>306</ele>
        <time>2017-07-29T09:06:19+02:00</time>
      </trkpt>
      <trkpt lat="45.25912" lon="5.04799">
        <ele>310</ele>
        <time>2017-07-29T09:06:27+02:00</time>
      </trkpt>
      <trkpt lat="45.25897" lon="5.04825">
        <ele>313</ele>
        <time>2017-07-29T09:06:35+02:00</time>
      </trkpt>
      <trkpt lat="45.2589" lon="5.04856">
        <ele>315</ele>
        <time>2017-07-29T09:06:42+02:00</time>
      </trkpt>
      <trkpt lat="45.25894" lon="5.04888">
        <ele>317</ele>
        <time>2017-07-29T09:06:49+02:00</time>
      </trkpt>
      <trkpt lat="45.25902" lon="5.0492">
        <ele>320</ele>
        <time>2017-07-29T09:06:57+02:00</time>
      </trkpt>
      <trkpt lat="45.25893" lon="5.04951">
        <ele>326</ele>
        <time>2017-07-29T09:07:17+02:00</time>
      </trkpt>
      <trkpt lat="45.25883" lon="5.04981">
        <ele>328</ele>
        <time>2017-07-29T09:07:31+02:00</time>
      </trkpt>
      <trkpt lat="45.25862" lon="5.04966">
        <ele>330</ele>
        <time>2017-07-29T09:07:47+02:00</time>
      </trkpt>
      <trkpt lat="45.25862" lon="5.04998">
        <ele>335</ele>
        <time>2017-07-29T09:08:09+02:00</time>
      </trkpt>
      <trkpt lat="45.25868" lon="5.0503">
        <ele>340</ele>
        <time>2017-07-29T09:08:28+02:00</time>
      </trkpt>
      <trkpt lat="45.25877" lon="5.05061">
        <ele>342</ele>
        <time>2017-07-29T09:08:42+02:00</time>
      </trkpt>
      <trkpt lat="45.25878" lon="5.05097">
        <ele>343</ele>
        <time>2017-07-29T09:08:52+02:00</time>
      </trkpt>
      <trkpt lat="45.25879" lon="5.05129">
        <ele>344</ele>
        <time>2017-07-29T09:09:01+02:00</time>
      </trkpt>
      <trkpt lat="45.25879" lon="5.05162">
        <ele>344</ele>
        <time>2017-07-29T09:09:09+02:00</time>
      </trkpt>
      <trkpt lat="45.25878" lon="5.05197">
        <ele>343</ele>
        <time>2017-07-29T09:09:17+02:00</time>
      </trkpt>
      <trkpt lat="45.25869" lon="5.05231">
        <ele>341</ele>
        <time>2017-07-29T09:09:25+02:00</time>
      </trkpt>
      <trkpt lat="45.25865" lon="5.05267">
        <ele>340</ele>
        <time>2017-07-29T09:09:33+02:00</time>
      </trkpt>
      <trkpt lat="45.25866" lon="5.05303">
        <ele>339</ele>
        <time>2017-07-29T09:09:40+02:00</time>
      </trkpt>
      <trkpt lat="45.25869" lon="5.05337">
        <ele>338</ele>
        <time>2017-07-29T09:09:46+02:00</time>
      </trkpt>
      <trkpt lat="45.25874" lon="5.05368">
        <ele>337</ele>
        <time>2017-07-29T09:09:51+02:00</time>
      </trkpt>
      <trkpt lat="45.25882" lon="5.05401">
        <ele>336</ele>
        <time>2017-07-29T09:09:57+02:00</time>
      </trkpt>
      <trkpt lat="45.25891" lon="5.05434">
        <ele>335</ele>
        <time>2017-07-29T09:10:03+02:00</time>
      </trkpt>
      <trkpt lat="45.259" lon="5.05465">
        <ele>335</ele>
        <time>2017-07-29T09:10:09+02:00</time>
      </trkpt>
      <trkpt lat="45.25909" lon="5.05499">
        <ele>334</ele>
        <time>2017-07-29T09:10:15+02:00</time>
      </trkpt>
      <trkpt lat="45.25919" lon="5.05534">
        <ele>334</ele>
        <time>2017-07-29T09:10:21+02:00</time>
      </trkpt>
      <trkpt lat="45.25928" lon="5.05566">
        <ele>334</ele>
        <time>2017-07-29T09:10:26+02:00</time>
      </trkpt>
      <trkpt lat="45.25941" lon="5.05597">
        <ele>334</ele>
        <time>2017-07-29T09:10:32+02:00</time>
      </trkpt>
      <trkpt lat="45.25954" lon="5.05627">
        <ele>334</ele>
        <time>2017-07-29T09:10:38+02:00</time>
      </trkpt>
      <trkpt lat="45.2597" lon="5.05654">
        <ele>333</ele>
        <time>2017-07-29T09:10:44+02:00</time>
      </trkpt>
      <trkpt lat="45.25984" lon="5.0568">
        <ele>334</ele>
        <time>2017-07-29T09:10:49+02:00</time>
      </trkpt>
      <trkpt lat="45.25999" lon="5.05711">
        <ele>335</ele>
        <time>2017-07-29T09:10:55+02:00</time>
      </trkpt>
      <trkpt lat="45.26011" lon="5.05742">
        <ele>331</ele>
        <time>2017-07-29T09:11:01+02:00</time>
      </trkpt>
      <trkpt lat="45.26015" lon="5.05774">
        <ele>330</ele>
        <time>2017-07-29T09:11:06+02:00</time>
      </trkpt>
      <trkpt lat="45.26017" lon="5.05809">
        <ele>329</ele>
        <time>2017-07-29T09:11:11+02:00</time>
      </trkpt>
      <trkpt lat="45.26014" lon="5.05844">
        <ele>328</ele>
        <time>2017-07-29T09:11:16+02:00</time>
      </trkpt>
      <trkpt lat="45.26029" lon="5.05869">
        <ele>328</ele>
        <time>2017-07-29T09:11:21+02:00</time>
      </trkpt>
      <trkpt lat="45.26045" lon="5.05899">
        <ele>327</ele>
        <time>2017-07-29T09:11:25+02:00</time>
      </trkpt>
      <trkpt lat="45.26053" lon="5.05936">
        <ele>327</ele>
        <time>2017-07-29T09:11:29+02:00</time>
      </trkpt>
      <trkpt lat="45.26059" lon="5.05972">
        <ele>327</ele>
        <time>2017-07-29T09:11:33+02:00</time>
      </trkpt>
      <trkpt lat="45.26067" lon="5.06002">
        <ele>326</ele>
        <time>2017-07-29T09:11:37+02:00</time>
      </trkpt>
      <trkpt lat="45.26074" lon="5.06038">
        <ele>326</ele>
        <time>2017-07-29T09:11:42+02:00</time>
      </trkpt>
      <trkpt lat="45.2608" lon="5.06074">
        <ele>326</ele>
        <time>2017-07-29T09:11:47+02:00</time>
      </trkpt>
      <trkpt lat="45.2609" lon="5.06107">
        <ele>325</ele>
        <time>2017-07-29T09:11:52+02:00</time>
      </trkpt>
      <trkpt lat="45.26109" lon="5.06133">
        <ele>324</ele>
        <time>2017-07-29T09:11:57+02:00</time>
      </trkpt>
      <trkpt lat="45.26118" lon="5.06168">
        <ele>325</ele>
        <time>2017-07-29T09:12:03+02:00</time>
      </trkpt>
      <trkpt lat="45.26125" lon="5.06204">
        <ele>325</ele>
        <time>2017-07-29T09:12:09+02:00</time>
      </trkpt>
      <trkpt lat="45.2613" lon="5.06237">
        <ele>325</ele>
        <time>2017-07-29T09:12:14+02:00</time>
      </trkpt>
      <trkpt lat="45.26132" lon="5.06269">
        <ele>325</ele>
        <time>2017-07-29T09:12:19+02:00</time>
      </trkpt>
      <trkpt lat="45.26112" lon="5.06288">
        <ele>326</ele>
        <time>2017-07-29T09:12:32+02:00</time>
      </trkpt>
      <trkpt lat="45.26094" lon="5.06311">
        <ele>325</ele>
        <time>2017-07-29T09:12:53+02:00</time>
      </trkpt>
      <trkpt lat="45.26072" lon="5.06318">
        <ele>325</ele>
        <time>2017-07-29T09:13:13+02:00</time>
      </trkpt>
      <trkpt lat="45.26049" lon="5.06321">
        <ele>326</ele>
        <time>2017-07-29T09:13:28+02:00</time>
      </trkpt>
      <trkpt lat="45.26028" lon="5.06334">
        <ele>329</ele>
        <time>2017-07-29T09:13:51+02:00</time>
      </trkpt>
      <trkpt lat="45.26006" lon="5.06326">
        <ele>329</ele>
        <time>2017-07-29T09:14:07+02:00</time>
      </trkpt>
      <trkpt lat="45.25982" lon="5.06327">
        <ele>332</ele>
        <time>2017-07-29T09:14:26+02:00</time>
      </trkpt>
      <trkpt lat="45.25959" lon="5.06327">
        <ele>334</ele>
        <time>2017-07-29T09:14:41+02:00</time>
      </trkpt>
      <trkpt lat="45.25937" lon="5.06332">
        <ele>337</ele>
        <time>2017-07-29T09:15:04+02:00</time>
      </trkpt>
      <trkpt lat="45.25915" lon="5.06343">
        <ele>341</ele>
        <time>2017-07-29T09:15:28+02:00</time>
      </trkpt>
      <trkpt lat="45.25891" lon="5.06345">
        <ele>343</ele>
        <time>2017-07-29T09:15:53+02:00</time>
      </trkpt>
      <trkpt lat="45.25869" lon="5.06351">
        <ele>345</ele>
        <time>2017-07-29T09:16:19+02:00</time>
      </trkpt>
      <trkpt lat="45.25846" lon="5.06354">
        <ele>347</ele>
        <time>2017-07-29T09:16:43+02:00</time>
      </trkpt>
      <trkpt lat="45.25824" lon="5.06366">
        <ele>350</ele>
        <time>2017-07-29T09:17:00+02:00</time>
      </trkpt>
      <trkpt lat="45.25811" lon="5.06394">
        <ele>353</ele>
        <time>2017-07-29T09:17:17+02:00</time>
      </trkpt>
      <trkpt lat="45.25799" lon="5.06421">
        <ele>356</ele>
        <time>2017-07-29T09:17:33+02:00</time>
      </trkpt>
      <trkpt lat="45.25779" lon="5.06437">
        <ele>358</ele>
        <time>2017-07-29T09:17:49+02:00</time>
      </trkpt>
      <trkpt lat="45.25757" lon="5.06451">
        <ele>359</ele>
        <time>2017-07-29T09:18:05+02:00</time>
      </trkpt>
      <trkpt lat="45.25739" lon="5.06472">
        <ele>360</ele>
        <time>2017-07-29T09:18:18+02:00</time>
      </trkpt>
      <trkpt lat="45.25719" lon="5.06487">
        <ele>361</ele>
        <time>2017-07-29T09:18:36+02:00</time>
      </trkpt>
      <trkpt lat="45.25699" lon="5.06504">
        <ele>362</ele>
        <time>2017-07-29T09:18:51+02:00</time>
      </trkpt>
      <trkpt lat="45.25676" lon="5.06515">
        <ele>366</ele>
        <time>2017-07-29T09:19:07+02:00</time>
      </trkpt>
      <trkpt lat="45.2566" lon="5.06538">
        <ele>367</ele>
        <time>2017-07-29T09:19:23+02:00</time>
      </trkpt>
      <trkpt lat="45.25644" lon="5.06562">
        <ele>368</ele>
        <time>2017-07-29T09:19:37+02:00</time>
      </trkpt>
      <trkpt lat="45.25627" lon="5.06584">
        <ele>370</ele>
        <time>2017-07-29T09:19:55+02:00</time>
      </trkpt>
      <trkpt lat="45.25609" lon="5.06606">
        <ele>371</ele>
        <time>2017-07-29T09:20:10+02:00</time>
      </trkpt>
      <trkpt lat="45.2559" lon="5.06625">
        <ele>372</ele>
        <time>2017-07-29T09:20:22+02:00</time>
      </trkpt>
      <trkpt lat="45.25577" lon="5.06653">
        <ele>372</ele>
        <time>2017-07-29T09:20:38+02:00</time>
      </trkpt>
      <trkpt lat="45.25559" lon="5.06673">
        <ele>373</ele>
        <time>2017-07-29T09:20:51+02:00</time>
      </trkpt>
      <trkpt lat="45.25542" lon="5.06698">
        <ele>374</ele>
        <time>2017-07-29T09:21:06+02:00</time>
      </trkpt>
      <trkpt lat="45.25522" lon="5.06717">
        <ele>374</ele>
        <time>2017-07-29T09:21:20+02:00</time>
      </trkpt>
      <trkpt lat="45.25504" lon="5.06736">
        <ele>374</ele>
        <time>2017-07-29T09:21:31+02:00</time>
      </trkpt>
      <trkpt lat="45.25486" lon="5.06756">
        <ele>374</ele>
        <time>2017-07-29T09:21:44+02:00</time>
      </trkpt>
      <trkpt lat="45.25467" lon="5.06777">
        <ele>373</ele>
        <time>2017-07-29T09:21:57+02:00</time>
      </trkpt>
      <trkpt lat="45.25449" lon="5.06798">
        <ele>372</ele>
        <time>2017-07-29T09:22:11+02:00</time>
      </trkpt>
      <trkpt lat="45.25431" lon="5.06823">
        <ele>372</ele>
        <time>2017-07-29T09:22:21+02:00</time>
      </trkpt>
      <trkpt lat="45.25407" lon="5.0683">
        <ele>373</ele>
        <time>2017-07-29T09:22:27+02:00</time>
      </trkpt>
      <trkpt lat="45.25386" lon="5.06843">
        <ele>376</ele>
        <time>2017-07-29T09:22:34+02:00</time>
      </trkpt>
      <trkpt lat="45.25365" lon="5.06859">
        <ele>383</ele>
        <time>2017-07-29T09:22:44+02:00</time>
      </trkpt>
      <trkpt lat="45.25343" lon="5.06872">
        <ele>391</ele>
        <time>2017-07-29T09:22:53+02:00</time>
      </trkpt>
      <trkpt lat="45.25321" lon="5.06883">
        <ele>398</ele>
        <time>2017-07-29T09:23:01+02:00</time>
      </trkpt>
      <trkpt lat="45.253" lon="5.069">
        <ele>407</ele>
        <time>2017-07-29T09:23:10+02:00</time>
      </trkpt>
      <trkpt lat="45.2528" lon="5.06914">
        <ele>414</ele>
        <time>2017-07-29T09:23:20+02:00</time>
      </trkpt>
      <trkpt lat="45.25259" lon="5.06929">
        <ele>421</ele>
        <time>2017-07-29T09:23:32+02:00</time>
      </trkpt>
      <trkpt lat="45.2524" lon="5.06947">
        <ele>424</ele>
        <time>2017-07-29T09:23:44+02:00</time>
      </trkpt>
      <trkpt lat="45.25218" lon="5.06961">
        <ele>425</ele>
        <time>2017-07-29T09:23:58+02:00</time>
      </trkpt>
      <trkpt lat="45.25204" lon="5.06988">
        <ele>420</ele>
        <time>2017-07-29T09:26:03+02:00</time>
      </trkpt>
      <trkpt lat="45.25198" lon="5.07022">
        <ele>419</ele>
        <time>2017-07-29T09:26:14+02:00</time>
      </trkpt>
      <trkpt lat="45.252" lon="5.07054">
        <ele>419</ele>
        <time>2017-07-29T09:26:20+02:00</time>
      </trkpt>
      <trkpt lat="45.25207" lon="5.07092">
        <ele>418</ele>
        <time>2017-07-29T09:26:25+02:00</time>
      </trkpt>
      <trkpt lat="45.25211" lon="5.07129">
        <ele>418</ele>
        <time>2017-07-29T09:26:29+02:00</time>
      </trkpt>
      <trkpt lat="45.25214" lon="5.07164">
        <ele>417</ele>
        <time>2017-07-29T09:26:33+02:00</time>
      </trkpt>
      <trkpt lat="45.25222" lon="5.07195">
        <ele>414</ele>
        <time>2017-07-29T09:26:37+02:00</time>
      </trkpt>
      <trkpt lat="45.25236" lon="5.07222">
        <ele>413</ele>
        <time>2017-07-29T09:26:41+02:00</time>
      </trkpt>
      <trkpt lat="45.2526" lon="5.07233">
        <ele>412</ele>
        <time>2017-07-29T09:26:46+02:00</time>
      </trkpt>
      <trkpt lat="45.25288" lon="5.07229">
        <ele>409</ele>
        <time>2017-07-29T09:26:53+02:00</time>
      </trkpt>
      <trkpt lat="45.25312" lon="5.07232">
        <ele>405</ele>
        <time>2017-07-29T09:26:57+02:00</time>
      </trkpt>
      <trkpt lat="45.25337" lon="5.07237">
        <ele>402</ele>
        <time>2017-07-29T09:27:05+02:00</time>
      </trkpt>
      <trkpt lat="45.2536" lon="5.07243">
        <ele>399</ele>
        <time>2017-07-29T09:27:10+02:00</time>
      </trkpt>
      <trkpt lat="45.25382" lon="5.0725">
        <ele>398</ele>
        <time>2017-07-29T09:27:15+02:00</time>
      </trkpt>
      <trkpt lat="45.25406" lon="5.07253">
        <ele>397</ele>
        <time>2017-07-29T09:27:20+02:00</time>
      </trkpt>
      <trkpt lat="45.25431" lon="5.07257">
        <ele>395</ele>
        <time>2017-07-29T09:27:25+02:00</time>
      </trkpt>
      <trkpt lat="45.25457" lon="5.07261">
        <ele>393</ele>
        <time>2017-07-29T09:27:31+02:00</time>
      </trkpt>
      <trkpt lat="45.25483" lon="5.07266">
        <ele>392</ele>
        <time>2017-07-29T09:27:37+02:00</time>
      </trkpt>
      <trkpt lat="45.25508" lon="5.07281">
        <ele>392</ele>
        <time>2017-07-29T09:27:44+02:00</time>
      </trkpt>
      <trkpt lat="45.25532" lon="5.07289">
        <ele>391</ele>
        <time>2017-07-29T09:27:51+02:00</time>
      </trkpt>
      <trkpt lat="45.25528" lon="5.07323">
        <ele>394</ele>
        <time>2017-07-29T09:28:10+02:00</time>
      </trkpt>
      <trkpt lat="45.25512" lon="5.07347">
        <ele>392</ele>
        <time>2017-07-29T09:28:27+02:00</time>
      </trkpt>
      <trkpt lat="45.25495" lon="5.07369">
        <ele>391</ele>
        <time>2017-07-29T09:28:45+02:00</time>
      </trkpt>
      <trkpt lat="45.25484" lon="5.07397">
        <ele>392</ele>
        <time>2017-07-29T09:29:08+02:00</time>
      </trkpt>
      <trkpt lat="45.25468" lon="5.07421">
        <ele>394</ele>
        <time>2017-07-29T09:29:30+02:00</time>
      </trkpt>
      <trkpt lat="45.25448" lon="5.0744">
        <ele>394</ele>
        <time>2017-07-29T09:29:47+02:00</time>
      </trkpt>
      <trkpt lat="45.25439" lon="5.07469">
        <ele>397</ele>
        <time>2017-07-29T09:30:01+02:00</time>
      </trkpt>
      <trkpt lat="45.25421" lon="5.07491">
        <ele>405</ele>
        <time>2017-07-29T09:30:21+02:00</time>
      </trkpt>
      <trkpt lat="45.25403" lon="5.07511">
        <ele>408</ele>
        <time>2017-07-29T09:30:36+02:00</time>
      </trkpt>
      <trkpt lat="45.25388" lon="5.07535">
        <ele>410</ele>
        <time>2017-07-29T09:30:57+02:00</time>
      </trkpt>
      <trkpt lat="45.25375" lon="5.07562">
        <ele>413</ele>
        <time>2017-07-29T09:31:17+02:00</time>
      </trkpt>
      <trkpt lat="45.25377" lon="5.07594">
        <ele>414</ele>
        <time>2017-07-29T09:31:37+02:00</time>
      </trkpt>
      <trkpt lat="45.25377" lon="5.07627">
        <ele>414</ele>
        <time>2017-07-29T09:31:54+02:00</time>
      </trkpt>
      <trkpt lat="45.25357" lon="5.07644">
        <ele>419</ele>
        <time>2017-07-29T09:32:02+02:00</time>
      </trkpt>
      <trkpt lat="45.25339" lon="5.07668">
        <ele>423</ele>
        <time>2017-07-29T09:32:11+02:00</time>
      </trkpt>
      <trkpt lat="45.25323" lon="5.07692">
        <ele>430</ele>
        <time>2017-07-29T09:32:22+02:00</time>
      </trkpt>
      <trkpt lat="45.2531" lon="5.0772">
        <ele>436</ele>
        <time>2017-07-29T09:32:33+02:00</time>
      </trkpt>
      <trkpt lat="45.25297" lon="5.07749">
        <ele>441</ele>
        <time>2017-07-29T09:32:44+02:00</time>
      </trkpt>
      <trkpt lat="45.25283" lon="5.07774">
        <ele>445</ele>
        <time>2017-07-29T09:32:55+02:00</time>
      </trkpt>
      <trkpt lat="45.2527" lon="5.07802">
        <ele>449</ele>
        <time>2017-07-29T09:33:08+02:00</time>
      </trkpt>
      <trkpt lat="45.25258" lon="5.0783">
        <ele>450</ele>
        <time>2017-07-29T09:33:19+02:00</time>
      </trkpt>
      <trkpt lat="45.25239" lon="5.07849">
        <ele>453</ele>
        <time>2017-07-29T09:33:29+02:00</time>
      </trkpt>
      <trkpt lat="45.2522" lon="5.07869">
        <ele>457</ele>
        <time>2017-07-29T09:33:42+02:00</time>
      </trkpt>
      <trkpt lat="45.25202" lon="5.0789">
        <ele>460</ele>
        <time>2017-07-29T09:33:57+02:00</time>
      </trkpt>
      <trkpt lat="45.25183" lon="5.07909">
        <ele>461</ele>
        <time>2017-07-29T09:34:11+02:00</time>
      </trkpt>
      <trkpt lat="45.25168" lon="5.07933">
        <ele>464</ele>
        <time>2017-07-29T09:34:28+02:00</time>
      </trkpt>
      <trkpt lat="45.25153" lon="5.07957">
        <ele>464</ele>
        <time>2017-07-29T09:34:46+02:00</time>
      </trkpt>
      <trkpt lat="45.25136" lon="5.0798">
        <ele>465</ele>
        <time>2017-07-29T09:35:00+02:00</time>
      </trkpt>
      <trkpt lat="45.2512" lon="5.08003">
        <ele>466</ele>
        <time>2017-07-29T09:35:13+02:00</time>
      </trkpt>
      <trkpt lat="45.25104" lon="5.08027">
        <ele>466</ele>
        <time>2017-07-29T09:35:28+02:00</time>
      </trkpt>
      <trkpt lat="45.25088" lon="5.08051">
        <ele>466</ele>
        <time>2017-07-29T09:35:42+02:00</time>
      </trkpt>
      <trkpt lat="45.25074" lon="5.08076">
        <ele>467</ele>
        <time>2017-07-29T09:35:57+02:00</time>
      </trkpt>
      <trkpt lat="45.25056" lon="5.08097">
        <ele>467</ele>
        <time>2017-07-29T09:36:09+02:00</time>
      </trkpt>
      <trkpt lat="45.25036" lon="5.08116">
        <ele>466</ele>
        <time>2017-07-29T09:36:24+02:00</time>
      </trkpt>
      <trkpt lat="45.25023" lon="5.08144">
        <ele>464</ele>
        <time>2017-07-29T09:36:36+02:00</time>
      </trkpt>
      <trkpt lat="45.25008" lon="5.08171">
        <ele>462</ele>
        <time>2017-07-29T09:36:49+02:00</time>
      </trkpt>
      <trkpt lat="45.24988" lon="5.0819">
        <ele>461</ele>
        <time>2017-07-29T09:36:58+02:00</time>
      </trkpt>
      <trkpt lat="45.24972" lon="5.08215">
        <ele>461</ele>
        <time>2017-07-29T09:37:05+02:00</time>
      </trkpt>
      <trkpt lat="45.24954" lon="5.08236">
        <ele>460</ele>
        <time>2017-07-29T09:37:13+02:00</time>
      </trkpt>
      <trkpt lat="45.24933" lon="5.08253">
        <ele>460</ele>
        <time>2017-07-29T09:37:25+02:00</time>
      </trkpt>
      <trkpt lat="45.24911" lon="5.0826">
        <ele>458</ele>
        <time>2017-07-29T09:37:48+02:00</time>
      </trkpt>
      <trkpt lat="45.24889" lon="5.08264">
        <ele>457</ele>
        <time>2017-07-29T09:38:05+02:00</time>
      </trkpt>
      <trkpt lat="45.24867" lon="5.08274">
        <ele>454</ele>
        <time>2017-07-29T09:38:26+02:00</time>
      </trkpt>
      <trkpt lat="45.24844" lon="5.08278">
        <ele>453</ele>
        <time>2017-07-29T09:38:47+02:00</time>
      </trkpt>
      <trkpt lat="45.24821" lon="5.08281">
        <ele>453</ele>
        <time>2017-07-29T09:39:05+02:00</time>
      </trkpt>
      <trkpt lat="45.24796" lon="5.08278">
        <ele>452</ele>
        <time>2017-07-29T09:39:22+02:00</time>
      </trkpt>
      <trkpt lat="45.24772" lon="5.08274">
        <ele>452</ele>
        <time>2017-07-29T09:39:37+02:00</time>
      </trkpt>
      <trkpt lat="45.24748" lon="5.0827">
        <ele>451</ele>
        <time>2017-07-29T09:39:50+02:00</time>
      </trkpt>
      <trkpt lat="45.24724" lon="5.08269">
        <ele>450</ele>
        <time>2017-07-29T09:40:06+02:00</time>
      </trkpt>
      <trkpt lat="45.24701" lon="5.08265">
        <ele>449</ele>
        <time>2017-07-29T09:40:22+02:00</time>
      </trkpt>
      <trkpt lat="45.24678" lon="5.0826">
        <ele>448</ele>
        <time>2017-07-29T09:40:43+02:00</time>
      </trkpt>
      <trkpt lat="45.24657" lon="5.08271">
        <ele>447</ele>
        <time>2017-07-29T09:40:59+02:00</time>
      </trkpt>
      <trkpt lat="45.24633" lon="5.08268">
        <ele>446</ele>
        <time>2017-07-29T09:41:21+02:00</time>
      </trkpt>
      <trkpt lat="45.2461" lon="5.08262">
        <ele>444</ele>
        <time>2017-07-29T09:41:34+02:00</time>
      </trkpt>
      <trkpt lat="45.24587" lon="5.08256">
        <ele>442</ele>
        <time>2017-07-29T09:41:53+02:00</time>
      </trkpt>
      <trkpt lat="45.24563" lon="5.08248">
        <ele>441</ele>
        <time>2017-07-29T09:42:09+02:00</time>
      </trkpt>
      <trkpt lat="45.24541" lon="5.08246">
        <ele>439</ele>
        <time>2017-07-29T09:42:25+02:00</time>
      </trkpt>
      <trkpt lat="45.24517" lon="5.08244">
        <ele>439</ele>
        <time>2017-07-29T09:42:34+02:00</time>
      </trkpt>
      <trkpt lat="45.24495" lon="5.08233">
        <ele>438</ele>
        <time>2017-07-29T09:42:48+02:00</time>
      </trkpt>
      <trkpt lat="45.24472" lon="5.08233">
        <ele>437</ele>
        <time>2017-07-29T09:43:02+02:00</time>
      </trkpt>
      <trkpt lat="45.24449" lon="5.08238">
        <ele>436</ele>
        <time>2017-07-29T09:43:16+02:00</time>
      </trkpt>
      <trkpt lat="45.24427" lon="5.08249">
        <ele>436</ele>
        <time>2017-07-29T09:43:28+02:00</time>
      </trkpt>
      <trkpt lat="45.24404" lon="5.08255">
        <ele>436</ele>
        <time>2017-07-29T09:43:42+02:00</time>
      </trkpt>
      <trkpt lat="45.24381" lon="5.08256">
        <ele>435</ele>
        <time>2017-07-29T09:43:59+02:00</time>
      </trkpt>
      <trkpt lat="45.24358" lon="5.08274">
        <ele>437</ele>
        <time>2017-07-29T09:44:07+02:00</time>
      </trkpt>
      <trkpt lat="45.24336" lon="5.08283">
        <ele>439</ele>
        <time>2017-07-29T09:44:14+02:00</time>
      </trkpt>
      <trkpt lat="45.24312" lon="5.0829">
        <ele>440</ele>
        <time>2017-07-29T09:44:27+02:00</time>
      </trkpt>
      <trkpt lat="45.24289" lon="5.0829">
        <ele>440</ele>
        <time>2017-07-29T09:44:34+02:00</time>
      </trkpt>
      <trkpt lat="45.24265" lon="5.08293">
        <ele>441</ele>
        <time>2017-07-29T09:44:40+02:00</time>
      </trkpt>
      <trkpt lat="45.24242" lon="5.08287">
        <ele>441</ele>
        <time>2017-07-29T09:44:50+02:00</time>
      </trkpt>
      <trkpt lat="45.24218" lon="5.08276">
        <ele>441</ele>
        <time>2017-07-29T09:45:02+02:00</time>
      </trkpt>
      <trkpt lat="45.24196" lon="5.08268">
        <ele>440</ele>
        <time>2017-07-29T09:45:14+02:00</time>
      </trkpt>
      <trkpt lat="45.24174" lon="5.08255">
        <ele>440</ele>
        <time>2017-07-29T09:45:24+02:00</time>
      </trkpt>
      <trkpt lat="45.2418" lon="5.08287">
        <ele>447</ele>
        <time>2017-07-29T09:45:51+02:00</time>
      </trkpt>
      <trkpt lat="45.24201" lon="5.083">
        <ele>448</ele>
        <time>2017-07-29T09:45:58+02:00</time>
      </trkpt>
      <trkpt lat="45.24224" lon="5.08313">
        <ele>449</ele>
        <time>2017-07-29T09:46:05+02:00</time>
      </trkpt>
      <trkpt lat="45.24249" lon="5.08323">
        <ele>449</ele>
        <time>2017-07-29T09:46:12+02:00</time>
      </trkpt>
      <trkpt lat="45.24272" lon="5.08327">
        <ele>450</ele>
        <time>2017-07-29T09:46:18+02:00</time>
      </trkpt>
      <trkpt lat="45.24297" lon="5.08328">
        <ele>450</ele>
        <time>2017-07-29T09:46:24+02:00</time>
      </trkpt>
      <trkpt lat="45.24322" lon="5.08328">
        <ele>451</ele>
        <time>2017-07-29T09:46:30+02:00</time>
      </trkpt>
      <trkpt lat="45.24345" lon="5.0832">
        <ele>453</ele>
        <time>2017-07-29T09:46:37+02:00</time>
      </trkpt>
      <trkpt lat="45.24367" lon="5.08311">
        <ele>455</ele>
        <time>2017-07-29T09:46:42+02:00</time>
      </trkpt>
      <trkpt lat="45.24392" lon="5.08302">
        <ele>460</ele>
        <time>2017-07-29T09:46:47+02:00</time>
      </trkpt>
      <trkpt lat="45.24414" lon="5.08284">
        <ele>470</ele>
        <time>2017-07-29T09:46:52+02:00</time>
      </trkpt>
      <trkpt lat="45.24436" lon="5.08266">
        <ele>475</ele>
        <time>2017-07-29T09:46:58+02:00</time>
      </trkpt>
      <trkpt lat="45.24459" lon="5.08257">
        <ele>478</ele>
        <time>2017-07-29T09:47:04+02:00</time>
      </trkpt>
      <trkpt lat="45.24483" lon="5.08257">
        <ele>480</ele>
        <time>2017-07-29T09:47:09+02:00</time>
      </trkpt>
      <trkpt lat="45.2446" lon="5.08273">
        <ele>488</ele>
        <time>2017-07-29T09:47:39+02:00</time>
      </trkpt>
      <trkpt lat="45.24436" lon="5.08286">
        <ele>488</ele>
        <time>2017-07-29T09:47:46+02:00</time>
      </trkpt>
      <trkpt lat="45.24414" lon="5.08298">
        <ele>488</ele>
        <time>2017-07-29T09:47:52+02:00</time>
      </trkpt>
      <trkpt lat="45.24394" lon="5.08316">
        <ele>490</ele>
        <time>2017-07-29T09:48:00+02:00</time>
      </trkpt>
      <trkpt lat="45.2438" lon="5.08344">
        <ele>492</ele>
        <time>2017-07-29T09:48:10+02:00</time>
      </trkpt>
      <trkpt lat="45.24364" lon="5.08366">
        <ele>495</ele>
        <time>2017-07-29T09:48:19+02:00</time>
      </trkpt>
      <trkpt lat="45.2435" lon="5.08393">
        <ele>497</ele>
        <time>2017-07-29T09:48:26+02:00</time>
      </trkpt>
      <trkpt lat="45.24338" lon="5.08422">
        <ele>499</ele>
        <time>2017-07-29T09:48:32+02:00</time>
      </trkpt>
      <trkpt lat="45.2433" lon="5.08453">
        <ele>501</ele>
        <time>2017-07-29T09:48:39+02:00</time>
      </trkpt>
      <trkpt lat="45.24319" lon="5.08483">
        <ele>504</ele>
        <time>2017-07-29T09:48:46+02:00</time>
      </trkpt>
      <trkpt lat="45.24314" lon="5.08523">
        <ele>505</ele>
        <time>2017-07-29T09:49:41+02:00</time>
      </trkpt>
      <trkpt lat="45.24297" lon="5.08547">
        <ele>503</ele>
        <time>2017-07-29T09:49:48+02:00</time>
      </trkpt>
      <trkpt lat="45.24282" lon="5.0857">
        <ele>500</ele>
        <time>2017-07-29T09:50:13+02:00</time>
      </trkpt>
      <trkpt lat="45.24272" lon="5.08599">
        <ele>498</ele>
        <time>2017-07-29T09:50:24+02:00</time>
      </trkpt>
      <trkpt lat="45.24259" lon="5.08629">
        <ele>497</ele>
        <time>2017-07-29T09:50:35+02:00</time>
      </trkpt>
      <trkpt lat="45.24245" lon="5.08656">
        <ele>496</ele>
        <time>2017-07-29T09:50:43+02:00</time>
      </trkpt>
      <trkpt lat="45.24239" lon="5.08692">
        <ele>494</ele>
        <time>2017-07-29T09:50:51+02:00</time>
      </trkpt>
      <trkpt lat="45.24237" lon="5.08726">
        <ele>494</ele>
        <time>2017-07-29T09:50:57+02:00</time>
      </trkpt>
      <trkpt lat="45.24236" lon="5.08758">
        <ele>493</ele>
        <time>2017-07-29T09:51:03+02:00</time>
      </trkpt>
      <trkpt lat="45.24235" lon="5.08791">
        <ele>492</ele>
        <time>2017-07-29T09:51:09+02:00</time>
      </trkpt>
      <trkpt lat="45.2424" lon="5.08822">
        <ele>491</ele>
        <time>2017-07-29T09:51:15+02:00</time>
      </trkpt>
      <trkpt lat="45.2425" lon="5.08856">
        <ele>489</ele>
        <time>2017-07-29T09:51:22+02:00</time>
      </trkpt>
      <trkpt lat="45.24261" lon="5.08888">
        <ele>488</ele>
        <time>2017-07-29T09:51:28+02:00</time>
      </trkpt>
      <trkpt lat="45.24266" lon="5.08921">
        <ele>486</ele>
        <time>2017-07-29T09:51:37+02:00</time>
      </trkpt>
      <trkpt lat="45.2427" lon="5.08954">
        <ele>484</ele>
        <time>2017-07-29T09:51:43+02:00</time>
      </trkpt>
      <trkpt lat="45.24276" lon="5.08985">
        <ele>482</ele>
        <time>2017-07-29T09:51:48+02:00</time>
      </trkpt>
      <trkpt lat="45.24286" lon="5.09015">
        <ele>480</ele>
        <time>2017-07-29T09:51:52+02:00</time>
      </trkpt>
      <trkpt lat="45.24288" lon="5.0905">
        <ele>478</ele>
        <time>2017-07-29T09:51:58+02:00</time>
      </trkpt>
      <trkpt lat="45.24276" lon="5.09079">
        <ele>477</ele>
        <time>2017-07-29T09:52:07+02:00</time>
      </trkpt>
      <trkpt lat="45.2426" lon="5.09106">
        <ele>475</ele>
        <time>2017-07-29T09:52:15+02:00</time>
      </trkpt>
      <trkpt lat="45.24251" lon="5.09137">
        <ele>475</ele>
        <time>2017-07-29T09:52:27+02:00</time>
      </trkpt>
      <trkpt lat="45.24233" lon="5.0916">
        <ele>475</ele>
        <time>2017-07-29T09:52:40+02:00</time>
      </trkpt>
      <trkpt lat="45.24212" lon="5.09174">
        <ele>473</ele>
        <time>2017-07-29T09:52:47+02:00</time>
      </trkpt>
      <trkpt lat="45.2419" lon="5.09181">
        <ele>472</ele>
        <time>2017-07-29T09:52:55+02:00</time>
      </trkpt>
      <trkpt lat="45.24168" lon="5.09197">
        <ele>472</ele>
        <time>2017-07-29T09:53:04+02:00</time>
      </trkpt>
      <trkpt lat="45.24146" lon="5.09207">
        <ele>470</ele>
        <time>2017-07-29T09:53:18+02:00</time>
      </trkpt>
      <trkpt lat="45.24124" lon="5.09219">
        <ele>468</ele>
        <time>2017-07-29T09:53:33+02:00</time>
      </trkpt>
      <trkpt lat="45.24101" lon="5.09218">
        <ele>467</ele>
        <time>2017-07-29T09:53:40+02:00</time>
      </trkpt>
      <trkpt lat="45.24076" lon="5.09215">
        <ele>465</ele>
        <time>2017-07-29T09:53:47+02:00</time>
      </trkpt>
      <trkpt lat="45.2405" lon="5.09214">
        <ele>463</ele>
        <time>2017-07-29T09:53:55+02:00</time>
      </trkpt>
      <trkpt lat="45.24028" lon="5.09209">
        <ele>461</ele>
        <time>2017-07-29T09:54:09+02:00</time>
      </trkpt>
      <trkpt lat="45.24005" lon="5.09208">
        <ele>459</ele>
        <time>2017-07-29T09:54:19+02:00</time>
      </trkpt>
      <trkpt lat="45.2399" lon="5.09232">
        <ele>459</ele>
        <time>2017-07-29T09:54:26+02:00</time>
      </trkpt>
      <trkpt lat="45.23985" lon="5.09264">
        <ele>458</ele>
        <time>2017-07-29T09:54:35+02:00</time>
      </trkpt>
      <trkpt lat="45.23985" lon="5.09297">
        <ele>457</ele>
        <time>2017-07-29T09:54:42+02:00</time>
      </trkpt>
      <trkpt lat="45.23975" lon="5.0933">
        <ele>457</ele>
        <time>2017-07-29T09:54:50+02:00</time>
      </trkpt>
      <trkpt lat="45.2398" lon="5.09363">
        <ele>457</ele>
        <time>2017-07-29T09:54:57+02:00</time>
      </trkpt>
      <trkpt lat="45.23983" lon="5.09396">
        <ele>460</ele>
        <time>2017-07-29T09:55:03+02:00</time>
      </trkpt>
      <trkpt lat="45.2396" lon="5.09403">
        <ele>463</ele>
        <time>2017-07-29T09:55:18+02:00</time>
      </trkpt>
      <trkpt lat="45.23935" lon="5.09396">
        <ele>463</ele>
        <time>2017-07-29T09:55:25+02:00</time>
      </trkpt>
      <trkpt lat="45.23914" lon="5.0941">
        <ele>462</ele>
        <time>2017-07-29T09:55:35+02:00</time>
      </trkpt>
      <trkpt lat="45.23892" lon="5.09418">
        <ele>463</ele>
        <time>2017-07-29T09:55:47+02:00</time>
      </trkpt>
      <trkpt lat="45.23869" lon="5.09421">
        <ele>464</ele>
        <time>2017-07-29T09:56:00+02:00</time>
      </trkpt>
      <trkpt lat="45.23845" lon="5.09416">
        <ele>465</ele>
        <time>2017-07-29T09:56:14+02:00</time>
      </trkpt>
      <trkpt lat="45.23823" lon="5.09407">
        <ele>466</ele>
        <time>2017-07-29T09:56:25+02:00</time>
      </trkpt>
      <trkpt lat="45.23799" lon="5.09405">
        <ele>467</ele>
        <time>2017-07-29T09:56:35+02:00</time>
      </trkpt>
      <trkpt lat="45.23776" lon="5.09418">
        <ele>469</ele>
        <time>2017-07-29T09:56:43+02:00</time>
      </trkpt>
      <trkpt lat="45.23753" lon="5.09427">
        <ele>471</ele>
        <time>2017-07-29T09:56:51+02:00</time>
      </trkpt>
      <trkpt lat="45.23732" lon="5.09439">
        <ele>473</ele>
        <time>2017-07-29T09:57:01+02:00</time>
      </trkpt>
      <trkpt lat="45.23713" lon="5.09458">
        <ele>475</ele>
        <time>2017-07-29T09:57:09+02:00</time>
      </trkpt>
      <trkpt lat="45.237" lon="5.09486">
        <ele>477</ele>
        <time>2017-07-29T09:57:17+02:00</time>
      </trkpt>
      <trkpt lat="45.23694" lon="5.09519">
        <ele>482</ele>
        <time>2017-07-29T09:57:23+02:00</time>
      </trkpt>
      <trkpt lat="45.23701" lon="5.09552">
        <ele>483</ele>
        <time>2017-07-29T09:57:30+02:00</time>
      </trkpt>
      <trkpt lat="45.23702" lon="5.09588">
        <ele>483</ele>
        <time>2017-07-29T09:57:36+02:00</time>
      </trkpt>
      <trkpt lat="45.23699" lon="5.0962">
        <ele>484</ele>
        <time>2017-07-29T09:57:41+02:00</time>
      </trkpt>
      <trkpt lat="45.23687" lon="5.09649">
        <ele>484</ele>
        <time>2017-07-29T09:57:48+02:00</time>
      </trkpt>
      <trkpt lat="45.2369" lon="5.09682">
        <ele>484</ele>
        <time>2017-07-29T09:57:54+02:00</time>
      </trkpt>
      <trkpt lat="45.23693" lon="5.09718">
        <ele>483</ele>
        <time>2017-07-29T09:58:00+02:00</time>
      </trkpt>
      <trkpt lat="45.2368" lon="5.09749">
        <ele>486</ele>
        <time>2017-07-29T09:58:04+02:00</time>
      </trkpt>
      <trkpt lat="45.23685" lon="5.09784">
        <ele>488</ele>
        <time>2017-07-29T09:58:11+02:00</time>
      </trkpt>
      <trkpt lat="45.23697" lon="5.09815">
        <ele>489</ele>
        <time>2017-07-29T09:58:17+02:00</time>
      </trkpt>
      <trkpt lat="45.23713" lon="5.09841">
        <ele>489</ele>
        <time>2017-07-29T09:58:22+02:00</time>
      </trkpt>
      <trkpt lat="45.23721" lon="5.09873">
        <ele>490</ele>
        <time>2017-07-29T09:58:27+02:00</time>
      </trkpt>
      <trkpt lat="45.23738" lon="5.09901">
        <ele>491</ele>
        <time>2017-07-29T09:58:32+02:00</time>
      </trkpt>
      <trkpt lat="45.23755" lon="5.09928">
        <ele>491</ele>
        <time>2017-07-29T09:58:38+02:00</time>
      </trkpt>
      <trkpt lat="45.23763" lon="5.09963">
        <ele>492</ele>
        <time>2017-07-29T09:58:44+02:00</time>
      </trkpt>
      <trkpt lat="45.23769" lon="5.09995">
        <ele>493</ele>
        <time>2017-07-29T09:58:50+02:00</time>
      </trkpt>
      <trkpt lat="45.2378" lon="5.1003">
        <ele>494</ele>
        <time>2017-07-29T09:58:57+02:00</time>
      </trkpt>
      <trkpt lat="45.23791" lon="5.10062">
        <ele>495</ele>
        <time>2017-07-29T09:59:02+02:00</time>
      </trkpt>
      <trkpt lat="45.23805" lon="5.10093">
        <ele>496</ele>
        <time>2017-07-29T09:59:07+02:00</time>
      </trkpt>
      <trkpt lat="45.23818" lon="5.10126">
        <ele>495</ele>
        <time>2017-07-29T09:59:11+02:00</time>
      </trkpt>
      <trkpt lat="45.23822" lon="5.10159">
        <ele>496</ele>
        <time>2017-07-29T09:59:15+02:00</time>
      </trkpt>
      <trkpt lat="45.23824" lon="5.10194">
        <ele>495</ele>
        <time>2017-07-29T09:59:20+02:00</time>
      </trkpt>
      <trkpt lat="45.23822" lon="5.10228">
        <ele>494</ele>
        <time>2017-07-29T09:59:25+02:00</time>
      </trkpt>
      <trkpt lat="45.23827" lon="5.10264">
        <ele>494</ele>
        <time>2017-07-29T09:59:31+02:00</time>
      </trkpt>
      <trkpt lat="45.2383" lon="5.10298">
        <ele>494</ele>
        <time>2017-07-29T09:59:37+02:00</time>
      </trkpt>
      <trkpt lat="45.23834" lon="5.1033">
        <ele>495</ele>
        <time>2017-07-29T09:59:43+02:00</time>
      </trkpt>
      <trkpt lat="45.23838" lon="5.10361">
        <ele>495</ele>
        <time>2017-07-29T09:59:48+02:00</time>
      </trkpt>
      <trkpt lat="45.2383" lon="5.10403">
        <ele>495</ele>
        <time>2017-07-29T09:59:53+02:00</time>
      </trkpt>
      <trkpt lat="45.23821" lon="5.10433">
        <ele>495</ele>
        <time>2017-07-29T09:59:56+02:00</time>
      </trkpt>
      <trkpt lat="45.23814" lon="5.10466">
        <ele>495</ele>
        <time>2017-07-29T10:00:02+02:00</time>
      </trkpt>
      <trkpt lat="45.23807" lon="5.105">
        <ele>496</ele>
        <time>2017-07-29T10:00:08+02:00</time>
      </trkpt>
      <trkpt lat="45.23794" lon="5.10527">
        <ele>496</ele>
        <time>2017-07-29T10:00:16+02:00</time>
      </trkpt>
      <trkpt lat="45.23779" lon="5.10557">
        <ele>496</ele>
        <time>2017-07-29T10:00:23+02:00</time>
      </trkpt>
      <trkpt lat="45.23761" lon="5.10584">
        <ele>496</ele>
        <time>2017-07-29T10:00:29+02:00</time>
      </trkpt>
      <trkpt lat="45.23743" lon="5.10608">
        <ele>497</ele>
        <time>2017-07-29T10:00:34+02:00</time>
      </trkpt>
      <trkpt lat="45.23727" lon="5.10631">
        <ele>496</ele>
        <time>2017-07-29T10:00:38+02:00</time>
      </trkpt>
      <trkpt lat="45.23702" lon="5.10643">
        <ele>496</ele>
        <time>2017-07-29T10:00:43+02:00</time>
      </trkpt>
      <trkpt lat="45.23679" lon="5.10644">
        <ele>497</ele>
        <time>2017-07-29T10:00:50+02:00</time>
      </trkpt>
      <trkpt lat="45.23657" lon="5.1065">
        <ele>497</ele>
        <time>2017-07-29T10:00:55+02:00</time>
      </trkpt>
      <trkpt lat="45.23636" lon="5.10662">
        <ele>497</ele>
        <time>2017-07-29T10:01:00+02:00</time>
      </trkpt>
      <trkpt lat="45.23612" lon="5.10673">
        <ele>497</ele>
        <time>2017-07-29T10:01:07+02:00</time>
      </trkpt>
      <trkpt lat="45.23594" lon="5.10695">
        <ele>497</ele>
        <time>2017-07-29T10:01:14+02:00</time>
      </trkpt>
      <trkpt lat="45.23574" lon="5.10718">
        <ele>496</ele>
        <time>2017-07-29T10:01:20+02:00</time>
      </trkpt>
      <trkpt lat="45.23553" lon="5.10736">
        <ele>496</ele>
        <time>2017-07-29T10:01:24+02:00</time>
      </trkpt>
      <trkpt lat="45.23528" lon="5.10743">
        <ele>495</ele>
        <time>2017-07-29T10:01:31+02:00</time>
      </trkpt>
      <trkpt lat="45.23504" lon="5.10749">
        <ele>495</ele>
        <time>2017-07-29T10:01:38+02:00</time>
      </trkpt>
      <trkpt lat="45.23481" lon="5.10764">
        <ele>495</ele>
        <time>2017-07-29T10:01:45+02:00</time>
      </trkpt>
      <trkpt lat="45.23472" lon="5.10794">
        <ele>495</ele>
        <time>2017-07-29T10:01:52+02:00</time>
      </trkpt>
      <trkpt lat="45.23463" lon="5.10828">
        <ele>495</ele>
        <time>2017-07-29T10:01:58+02:00</time>
      </trkpt>
      <trkpt lat="45.23453" lon="5.10857">
        <ele>495</ele>
        <time>2017-07-29T10:02:03+02:00</time>
      </trkpt>
      <trkpt lat="45.23451" lon="5.10892">
        <ele>495</ele>
        <time>2017-07-29T10:02:11+02:00</time>
      </trkpt>
      <trkpt lat="45.23459" lon="5.10922">
        <ele>495</ele>
        <time>2017-07-29T10:02:18+02:00</time>
      </trkpt>
      <trkpt lat="45.23481" lon="5.10938">
        <ele>495</ele>
        <time>2017-07-29T10:02:33+02:00</time>
      </trkpt>
      <trkpt lat="45.23502" lon="5.10953">
        <ele>495</ele>
        <time>2017-07-29T10:02:42+02:00</time>
      </trkpt>
      <trkpt lat="45.23524" lon="5.10961">
        <ele>495</ele>
        <time>2017-07-29T10:02:47+02:00</time>
      </trkpt>
      <trkpt lat="45.23547" lon="5.10966">
        <ele>496</ele>
        <time>2017-07-29T10:02:51+02:00</time>
      </trkpt>
      <trkpt lat="45.23573" lon="5.10972">
        <ele>497</ele>
        <time>2017-07-29T10:02:56+02:00</time>
      </trkpt>
      <trkpt lat="45.23599" lon="5.10973">
        <ele>499</ele>
        <time>2017-07-29T10:03:01+02:00</time>
      </trkpt>
      <trkpt lat="45.23626" lon="5.10975">
        <ele>501</ele>
        <time>2017-07-29T10:03:07+02:00</time>
      </trkpt>
      <trkpt lat="45.23651" lon="5.10978">
        <ele>503</ele>
        <time>2017-07-29T10:03:13+02:00</time>
      </trkpt>
      <trkpt lat="45.23673" lon="5.10989">
        <ele>506</ele>
        <time>2017-07-29T10:03:19+02:00</time>
      </trkpt>
      <trkpt lat="45.23701" lon="5.11">
        <ele>507</ele>
        <time>2017-07-29T10:03:24+02:00</time>
      </trkpt>
      <trkpt lat="45.23723" lon="5.11009">
        <ele>511</ele>
        <time>2017-07-29T10:03:26+02:00</time>
      </trkpt>
      <trkpt lat="45.23746" lon="5.11014">
        <ele>516</ele>
        <time>2017-07-29T10:03:29+02:00</time>
      </trkpt>
      <trkpt lat="45.23768" lon="5.11015">
        <ele>519</ele>
        <time>2017-07-29T10:03:34+02:00</time>
      </trkpt>
      <trkpt lat="45.23794" lon="5.11014">
        <ele>521</ele>
        <time>2017-07-29T10:03:40+02:00</time>
      </trkpt>
      <trkpt lat="45.23812" lon="5.11037">
        <ele>522</ele>
        <time>2017-07-29T10:03:48+02:00</time>
      </trkpt>
      <trkpt lat="45.23834" lon="5.11054">
        <ele>524</ele>
        <time>2017-07-29T10:03:53+02:00</time>
      </trkpt>
      <trkpt lat="45.23856" lon="5.11067">
        <ele>525</ele>
        <time>2017-07-29T10:03:58+02:00</time>
      </trkpt>
      <trkpt lat="45.2388" lon="5.11076">
        <ele>528</ele>
        <time>2017-07-29T10:04:02+02:00</time>
      </trkpt>
      <trkpt lat="45.23904" lon="5.11076">
        <ele>530</ele>
        <time>2017-07-29T10:04:10+02:00</time>
      </trkpt>
      <trkpt lat="45.23928" lon="5.11074">
        <ele>531</ele>
        <time>2017-07-29T10:04:20+02:00</time>
      </trkpt>
      <trkpt lat="45.23949" lon="5.11092">
        <ele>531</ele>
        <time>2017-07-29T10:04:33+02:00</time>
      </trkpt>
      <trkpt lat="45.2397" lon="5.11109">
        <ele>533</ele>
        <time>2017-07-29T10:04:44+02:00</time>
      </trkpt>
      <trkpt lat="45.23991" lon="5.11125">
        <ele>534</ele>
        <time>2017-07-29T10:04:52+02:00</time>
      </trkpt>
      <trkpt lat="45.24012" lon="5.11145">
        <ele>536</ele>
        <time>2017-07-29T10:05:00+02:00</time>
      </trkpt>
      <trkpt lat="45.24036" lon="5.11146">
        <ele>538</ele>
        <time>2017-07-29T10:05:06+02:00</time>
      </trkpt>
      <trkpt lat="45.2406" lon="5.11148">
        <ele>539</ele>
        <time>2017-07-29T10:05:11+02:00</time>
      </trkpt>
      <trkpt lat="45.24084" lon="5.11149">
        <ele>541</ele>
        <time>2017-07-29T10:05:17+02:00</time>
      </trkpt>
      <trkpt lat="45.24107" lon="5.11149">
        <ele>542</ele>
        <time>2017-07-29T10:05:22+02:00</time>
      </trkpt>
      <trkpt lat="45.2413" lon="5.11144">
        <ele>543</ele>
        <time>2017-07-29T10:05:27+02:00</time>
      </trkpt>
      <trkpt lat="45.24153" lon="5.11147">
        <ele>544</ele>
        <time>2017-07-29T10:05:33+02:00</time>
      </trkpt>
      <trkpt lat="45.24176" lon="5.1115">
        <ele>545</ele>
        <time>2017-07-29T10:05:38+02:00</time>
      </trkpt>
      <trkpt lat="45.24198" lon="5.11146">
        <ele>547</ele>
        <time>2017-07-29T10:05:48+02:00</time>
      </trkpt>
      <trkpt lat="45.24215" lon="5.11123">
        <ele>543</ele>
        <time>2017-07-29T10:06:42+02:00</time>
      </trkpt>
      <trkpt lat="45.24237" lon="5.11126">
        <ele>542</ele>
        <time>2017-07-29T10:06:50+02:00</time>
      </trkpt>
      <trkpt lat="45.24258" lon="5.11147">
        <ele>539</ele>
        <time>2017-07-29T10:06:57+02:00</time>
      </trkpt>
      <trkpt lat="45.24282" lon="5.11162">
        <ele>538</ele>
        <time>2017-07-29T10:07:03+02:00</time>
      </trkpt>
      <trkpt lat="45.24308" lon="5.11161">
        <ele>536</ele>
        <time>2017-07-29T10:07:10+02:00</time>
      </trkpt>
      <trkpt lat="45.24332" lon="5.11154">
        <ele>535</ele>
        <time>2017-07-29T10:07:16+02:00</time>
      </trkpt>
      <trkpt lat="45.24354" lon="5.11136">
        <ele>534</ele>
        <time>2017-07-29T10:07:23+02:00</time>
      </trkpt>
      <trkpt lat="45.24371" lon="5.11116">
        <ele>532</ele>
        <time>2017-07-29T10:07:31+02:00</time>
      </trkpt>
      <trkpt lat="45.24392" lon="5.11097">
        <ele>531</ele>
        <time>2017-07-29T10:07:39+02:00</time>
      </trkpt>
      <trkpt lat="45.24414" lon="5.11088">
        <ele>530</ele>
        <time>2017-07-29T10:07:46+02:00</time>
      </trkpt>
      <trkpt lat="45.24436" lon="5.11078">
        <ele>528</ele>
        <time>2017-07-29T10:07:53+02:00</time>
      </trkpt>
      <trkpt lat="45.2446" lon="5.11075">
        <ele>527</ele>
        <time>2017-07-29T10:07:59+02:00</time>
      </trkpt>
      <trkpt lat="45.24483" lon="5.11079">
        <ele>526</ele>
        <time>2017-07-29T10:08:06+02:00</time>
      </trkpt>
      <trkpt lat="45.24503" lon="5.11097">
        <ele>518</ele>
        <time>2017-07-29T10:08:14+02:00</time>
      </trkpt>
      <trkpt lat="45.24528" lon="5.11095">
        <ele>516</ele>
        <time>2017-07-29T10:08:23+02:00</time>
      </trkpt>
      <trkpt lat="45.24552" lon="5.11096">
        <ele>517</ele>
        <time>2017-07-29T10:08:30+02:00</time>
      </trkpt>
      <trkpt lat="45.24577" lon="5.11093">
        <ele>517</ele>
        <time>2017-07-29T10:08:39+02:00</time>
      </trkpt>
      <trkpt lat="45.24601" lon="5.11094">
        <ele>516</ele>
        <time>2017-07-29T10:08:46+02:00</time>
      </trkpt>
      <trkpt lat="45.24623" lon="5.11102">
        <ele>516</ele>
        <time>2017-07-29T10:08:54+02:00</time>
      </trkpt>
      <trkpt lat="45.24647" lon="5.11103">
        <ele>516</ele>
        <time>2017-07-29T10:09:00+02:00</time>
      </trkpt>
      <trkpt lat="45.24669" lon="5.11105">
        <ele>516</ele>
        <time>2017-07-29T10:09:04+02:00</time>
      </trkpt>
      <trkpt lat="45.24694" lon="5.11103">
        <ele>515</ele>
        <time>2017-07-29T10:09:09+02:00</time>
      </trkpt>
      <trkpt lat="45.24712" lon="5.1108">
        <ele>515</ele>
        <time>2017-07-29T10:09:15+02:00</time>
      </trkpt>
      <trkpt lat="45.2473" lon="5.11053">
        <ele>515</ele>
        <time>2017-07-29T10:09:21+02:00</time>
      </trkpt>
      <trkpt lat="45.24754" lon="5.1104">
        <ele>514</ele>
        <time>2017-07-29T10:09:26+02:00</time>
      </trkpt>
      <trkpt lat="45.24777" lon="5.11027">
        <ele>514</ele>
        <time>2017-07-29T10:09:33+02:00</time>
      </trkpt>
      <trkpt lat="45.24798" lon="5.11008">
        <ele>514</ele>
        <time>2017-07-29T10:09:40+02:00</time>
      </trkpt>
      <trkpt lat="45.24819" lon="5.1099">
        <ele>513</ele>
        <time>2017-07-29T10:09:47+02:00</time>
      </trkpt>
      <trkpt lat="45.24842" lon="5.10975">
        <ele>511</ele>
        <time>2017-07-29T10:09:58+02:00</time>
      </trkpt>
      <trkpt lat="45.24867" lon="5.10966">
        <ele>510</ele>
        <time>2017-07-29T10:10:08+02:00</time>
      </trkpt>
      <trkpt lat="45.2489" lon="5.10955">
        <ele>510</ele>
        <time>2017-07-29T10:10:14+02:00</time>
      </trkpt>
      <trkpt lat="45.24914" lon="5.10945">
        <ele>510</ele>
        <time>2017-07-29T10:10:20+02:00</time>
      </trkpt>
      <trkpt lat="45.24937" lon="5.10939">
        <ele>508</ele>
        <time>2017-07-29T10:10:27+02:00</time>
      </trkpt>
      <trkpt lat="45.24961" lon="5.1094">
        <ele>508</ele>
        <time>2017-07-29T10:10:35+02:00</time>
      </trkpt>
      <trkpt lat="45.24977" lon="5.10965">
        <ele>509</ele>
        <time>2017-07-29T10:10:47+02:00</time>
      </trkpt>
      <trkpt lat="45.24974" lon="5.10999">
        <ele>507</ele>
        <time>2017-07-29T10:10:57+02:00</time>
      </trkpt>
      <trkpt lat="45.2498" lon="5.11032">
        <ele>506</ele>
        <time>2017-07-29T10:11:06+02:00</time>
      </trkpt>
      <trkpt lat="45.24984" lon="5.11065">
        <ele>506</ele>
        <time>2017-07-29T10:11:13+02:00</time>
      </trkpt>
      <trkpt lat="45.2499" lon="5.11102">
        <ele>506</ele>
        <time>2017-07-29T10:11:20+02:00</time>
      </trkpt>
      <trkpt lat="45.24992" lon="5.11136">
        <ele>506</ele>
        <time>2017-07-29T10:11:26+02:00</time>
      </trkpt>
      <trkpt lat="45.24991" lon="5.11171">
        <ele>506</ele>
        <time>2017-07-29T10:11:31+02:00</time>
      </trkpt>
      <trkpt lat="45.24972" lon="5.11194">
        <ele>505</ele>
        <time>2017-07-29T10:11:42+02:00</time>
      </trkpt>
      <trkpt lat="45.24947" lon="5.11208">
        <ele>503</ele>
        <time>2017-07-29T10:11:48+02:00</time>
      </trkpt>
      <trkpt lat="45.24923" lon="5.11225">
        <ele>502</ele>
        <time>2017-07-29T10:11:54+02:00</time>
      </trkpt>
      <trkpt lat="45.24897" lon="5.11242">
        <ele>501</ele>
        <time>2017-07-29T10:11:59+02:00</time>
      </trkpt>
      <trkpt lat="45.24871" lon="5.11254">
        <ele>499</ele>
        <time>2017-07-29T10:12:03+02:00</time>
      </trkpt>
      <trkpt lat="45.24847" lon="5.11259">
        <ele>499</ele>
        <time>2017-07-29T10:12:07+02:00</time>
      </trkpt>
      <trkpt lat="45.24817" lon="5.11267">
        <ele>498</ele>
        <time>2017-07-29T10:12:11+02:00</time>
      </trkpt>
      <trkpt lat="45.248" lon="5.11288">
        <ele>497</ele>
        <time>2017-07-29T10:12:15+02:00</time>
      </trkpt>
      <trkpt lat="45.24783" lon="5.11311">
        <ele>496</ele>
        <time>2017-07-29T10:12:21+02:00</time>
      </trkpt>
      <trkpt lat="45.24765" lon="5.11333">
        <ele>495</ele>
        <time>2017-07-29T10:12:27+02:00</time>
      </trkpt>
      <trkpt lat="45.24743" lon="5.11346">
        <ele>494</ele>
        <time>2017-07-29T10:12:35+02:00</time>
      </trkpt>
      <trkpt lat="45.24718" lon="5.11349">
        <ele>493</ele>
        <time>2017-07-29T10:12:45+02:00</time>
      </trkpt>
      <trkpt lat="45.24693" lon="5.11348">
        <ele>494</ele>
        <time>2017-07-29T10:12:51+02:00</time>
      </trkpt>
      <trkpt lat="45.24667" lon="5.11349">
        <ele>495</ele>
        <time>2017-07-29T10:12:58+02:00</time>
      </trkpt>
      <trkpt lat="45.24644" lon="5.11351">
        <ele>496</ele>
        <time>2017-07-29T10:13:04+02:00</time>
      </trkpt>
      <trkpt lat="45.24619" lon="5.11348">
        <ele>497</ele>
        <time>2017-07-29T10:13:11+02:00</time>
      </trkpt>
      <trkpt lat="45.24593" lon="5.11345">
        <ele>497</ele>
        <time>2017-07-29T10:13:18+02:00</time>
      </trkpt>
      <trkpt lat="45.24571" lon="5.1136">
        <ele>498</ele>
        <time>2017-07-29T10:13:26+02:00</time>
      </trkpt>
      <trkpt lat="45.24551" lon="5.11376">
        <ele>498</ele>
        <time>2017-07-29T10:13:33+02:00</time>
      </trkpt>
      <trkpt lat="45.24535" lon="5.11401">
        <ele>498</ele>
        <time>2017-07-29T10:13:41+02:00</time>
      </trkpt>
      <trkpt lat="45.24522" lon="5.11428">
        <ele>499</ele>
        <time>2017-07-29T10:13:49+02:00</time>
      </trkpt>
      <trkpt lat="45.24509" lon="5.11457">
        <ele>498</ele>
        <time>2017-07-29T10:13:57+02:00</time>
      </trkpt>
      <trkpt lat="45.24495" lon="5.11483">
        <ele>497</ele>
        <time>2017-07-29T10:14:02+02:00</time>
      </trkpt>
      <trkpt lat="45.24481" lon="5.11508">
        <ele>495</ele>
        <time>2017-07-29T10:14:06+02:00</time>
      </trkpt>
      <trkpt lat="45.24466" lon="5.11534">
        <ele>494</ele>
        <time>2017-07-29T10:14:11+02:00</time>
      </trkpt>
      <trkpt lat="45.24451" lon="5.11564">
        <ele>493</ele>
        <time>2017-07-29T10:14:16+02:00</time>
      </trkpt>
      <trkpt lat="45.24435" lon="5.11587">
        <ele>492</ele>
        <time>2017-07-29T10:14:20+02:00</time>
      </trkpt>
      <trkpt lat="45.24419" lon="5.11614">
        <ele>490</ele>
        <time>2017-07-29T10:14:24+02:00</time>
      </trkpt>
      <trkpt lat="45.24398" lon="5.11637">
        <ele>489</ele>
        <time>2017-07-29T10:14:29+02:00</time>
      </trkpt>
      <trkpt lat="45.24377" lon="5.11655">
        <ele>488</ele>
        <time>2017-07-29T10:14:34+02:00</time>
      </trkpt>
      <trkpt lat="45.24353" lon="5.11672">
        <ele>487</ele>
        <time>2017-07-29T10:14:40+02:00</time>
      </trkpt>
      <trkpt lat="45.2433" lon="5.11683">
        <ele>486</ele>
        <time>2017-07-29T10:14:45+02:00</time>
      </trkpt>
      <trkpt lat="45.24309" lon="5.11701">
        <ele>484</ele>
        <time>2017-07-29T10:14:50+02:00</time>
      </trkpt>
      <trkpt lat="45.24286" lon="5.11723">
        <ele>483</ele>
        <time>2017-07-29T10:14:56+02:00</time>
      </trkpt>
      <trkpt lat="45.24268" lon="5.11749">
        <ele>482</ele>
        <time>2017-07-29T10:15:02+02:00</time>
      </trkpt>
      <trkpt lat="45.24255" lon="5.11777">
        <ele>482</ele>
        <time>2017-07-29T10:15:09+02:00</time>
      </trkpt>
      <trkpt lat="45.24238" lon="5.11801">
        <ele>481</ele>
        <time>2017-07-29T10:15:17+02:00</time>
      </trkpt>
      <trkpt lat="45.24215" lon="5.11822">
        <ele>480</ele>
        <time>2017-07-29T10:15:27+02:00</time>
      </trkpt>
      <trkpt lat="45.24194" lon="5.11835">
        <ele>477</ele>
        <time>2017-07-29T10:16:24+02:00</time>
      </trkpt>
      <trkpt lat="45.2421" lon="5.11811">
        <ele>500</ele>
        <time>2017-07-29T10:21:40+02:00</time>
      </trkpt>
      <trkpt lat="45.24196" lon="5.11837">
        <ele>500</ele>
        <time>2017-07-29T10:22:21+02:00</time>
      </trkpt>
      <trkpt lat="45.24176" lon="5.11856">
        <ele>501</ele>
        <time>2017-07-29T10:22:44+02:00</time>
      </trkpt>
      <trkpt lat="45.24167" lon="5.11886">
        <ele>500</ele>
        <time>2017-07-29T10:22:55+02:00</time>
      </trkpt>
      <trkpt lat="45.24153" lon="5.11915">
        <ele>500</ele>
        <time>2017-07-29T10:23:03+02:00</time>
      </trkpt>
      <trkpt lat="45.24136" lon="5.11937">
        <ele>501</ele>
        <time>2017-07-29T10:23:10+02:00</time>
      </trkpt>
      <trkpt lat="45.24119" lon="5.11963">
        <ele>500</ele>
        <time>2017-07-29T10:23:18+02:00</time>
      </trkpt>
      <trkpt lat="45.24105" lon="5.11989">
        <ele>501</ele>
        <time>2017-07-29T10:23:26+02:00</time>
      </trkpt>
      <trkpt lat="45.24083" lon="5.12009">
        <ele>503</ele>
        <time>2017-07-29T10:23:32+02:00</time>
      </trkpt>
      <trkpt lat="45.24067" lon="5.12035">
        <ele>504</ele>
        <time>2017-07-29T10:23:39+02:00</time>
      </trkpt>
      <trkpt lat="45.24051" lon="5.12061">
        <ele>504</ele>
        <time>2017-07-29T10:23:47+02:00</time>
      </trkpt>
      <trkpt lat="45.24033" lon="5.12088">
        <ele>504</ele>
        <time>2017-07-29T10:23:54+02:00</time>
      </trkpt>
      <trkpt lat="45.24018" lon="5.12115">
        <ele>505</ele>
        <time>2017-07-29T10:24:01+02:00</time>
      </trkpt>
      <trkpt lat="45.23999" lon="5.12135">
        <ele>506</ele>
        <time>2017-07-29T10:24:08+02:00</time>
      </trkpt>
      <trkpt lat="45.23981" lon="5.12115">
        <ele>508</ele>
        <time>2017-07-29T10:24:19+02:00</time>
      </trkpt>
      <trkpt lat="45.23972" lon="5.12148">
        <ele>509</ele>
        <time>2017-07-29T10:26:14+02:00</time>
      </trkpt>
      <trkpt lat="45.23962" lon="5.12179">
        <ele>509</ele>
        <time>2017-07-29T10:26:22+02:00</time>
      </trkpt>
      <trkpt lat="45.23946" lon="5.12205">
        <ele>509</ele>
        <time>2017-07-29T10:26:29+02:00</time>
      </trkpt>
      <trkpt lat="45.23927" lon="5.12228">
        <ele>508</ele>
        <time>2017-07-29T10:26:35+02:00</time>
      </trkpt>
      <trkpt lat="45.23908" lon="5.12252">
        <ele>507</ele>
        <time>2017-07-29T10:26:41+02:00</time>
      </trkpt>
      <trkpt lat="45.23889" lon="5.12279">
        <ele>505</ele>
        <time>2017-07-29T10:26:46+02:00</time>
      </trkpt>
      <trkpt lat="45.23873" lon="5.12302">
        <ele>505</ele>
        <time>2017-07-29T10:26:50+02:00</time>
      </trkpt>
      <trkpt lat="45.23855" lon="5.12326">
        <ele>504</ele>
        <time>2017-07-29T10:26:54+02:00</time>
      </trkpt>
      <trkpt lat="45.23837" lon="5.12349">
        <ele>503</ele>
        <time>2017-07-29T10:26:58+02:00</time>
      </trkpt>
      <trkpt lat="45.23817" lon="5.12371">
        <ele>502</ele>
        <time>2017-07-29T10:27:05+02:00</time>
      </trkpt>
      <trkpt lat="45.23796" lon="5.12385">
        <ele>500</ele>
        <time>2017-07-29T10:27:15+02:00</time>
      </trkpt>
      <trkpt lat="45.23775" lon="5.12406">
        <ele>499</ele>
        <time>2017-07-29T10:27:24+02:00</time>
      </trkpt>
      <trkpt lat="45.23754" lon="5.12425">
        <ele>499</ele>
        <time>2017-07-29T10:27:31+02:00</time>
      </trkpt>
      <trkpt lat="45.23733" lon="5.1244">
        <ele>499</ele>
        <time>2017-07-29T10:27:39+02:00</time>
      </trkpt>
      <trkpt lat="45.23711" lon="5.12448">
        <ele>500</ele>
        <time>2017-07-29T10:28:36+02:00</time>
      </trkpt>
      <trkpt lat="45.23737" lon="5.12435">
        <ele>506</ele>
        <time>2017-07-29T10:36:49+02:00</time>
      </trkpt>
      <trkpt lat="45.23762" lon="5.12433">
        <ele>506</ele>
        <time>2017-07-29T10:36:59+02:00</time>
      </trkpt>
      <trkpt lat="45.23784" lon="5.12424">
        <ele>507</ele>
        <time>2017-07-29T10:37:07+02:00</time>
      </trkpt>
      <trkpt lat="45.23808" lon="5.1241">
        <ele>507</ele>
        <time>2017-07-29T10:37:15+02:00</time>
      </trkpt>
      <trkpt lat="45.23829" lon="5.12395">
        <ele>507</ele>
        <time>2017-07-29T10:37:22+02:00</time>
      </trkpt>
      <trkpt lat="45.23843" lon="5.12367">
        <ele>508</ele>
        <time>2017-07-29T10:37:27+02:00</time>
      </trkpt>
      <trkpt lat="45.23846" lon="5.12335">
        <ele>509</ele>
        <time>2017-07-29T10:37:33+02:00</time>
      </trkpt>
      <trkpt lat="45.23855" lon="5.12303">
        <ele>509</ele>
        <time>2017-07-29T10:37:41+02:00</time>
      </trkpt>
      <trkpt lat="45.23866" lon="5.12273">
        <ele>509</ele>
        <time>2017-07-29T10:37:48+02:00</time>
      </trkpt>
      <trkpt lat="45.23882" lon="5.12247">
        <ele>509</ele>
        <time>2017-07-29T10:37:55+02:00</time>
      </trkpt>
      <trkpt lat="45.239" lon="5.12229">
        <ele>510</ele>
        <time>2017-07-29T10:38:01+02:00</time>
      </trkpt>
      <trkpt lat="45.2392" lon="5.1221">
        <ele>510</ele>
        <time>2017-07-29T10:38:06+02:00</time>
      </trkpt>
      <trkpt lat="45.2394" lon="5.12195">
        <ele>510</ele>
        <time>2017-07-29T10:38:12+02:00</time>
      </trkpt>
      <trkpt lat="45.23961" lon="5.12173">
        <ele>510</ele>
        <time>2017-07-29T10:38:17+02:00</time>
      </trkpt>
      <trkpt lat="45.23978" lon="5.1215">
        <ele>510</ele>
        <time>2017-07-29T10:38:22+02:00</time>
      </trkpt>
      <trkpt lat="45.23998" lon="5.12132">
        <ele>510</ele>
        <time>2017-07-29T10:38:27+02:00</time>
      </trkpt>
      <trkpt lat="45.24018" lon="5.12113">
        <ele>511</ele>
        <time>2017-07-29T10:38:33+02:00</time>
      </trkpt>
      <trkpt lat="45.24039" lon="5.12089">
        <ele>511</ele>
        <time>2017-07-29T10:38:39+02:00</time>
      </trkpt>
      <trkpt lat="45.24057" lon="5.12061">
        <ele>511</ele>
        <time>2017-07-29T10:38:45+02:00</time>
      </trkpt>
      <trkpt lat="45.24073" lon="5.12036">
        <ele>511</ele>
        <time>2017-07-29T10:38:49+02:00</time>
      </trkpt>
      <trkpt lat="45.24088" lon="5.12012">
        <ele>511</ele>
        <time>2017-07-29T10:38:53+02:00</time>
      </trkpt>
      <trkpt lat="45.24108" lon="5.11989">
        <ele>511</ele>
        <time>2017-07-29T10:38:59+02:00</time>
      </trkpt>
      <trkpt lat="45.24123" lon="5.11961">
        <ele>511</ele>
        <time>2017-07-29T10:39:04+02:00</time>
      </trkpt>
      <trkpt lat="45.24134" lon="5.11933">
        <ele>511</ele>
        <time>2017-07-29T10:39:09+02:00</time>
      </trkpt>
      <trkpt lat="45.24147" lon="5.11906">
        <ele>511</ele>
        <time>2017-07-29T10:39:13+02:00</time>
      </trkpt>
      <trkpt lat="45.24163" lon="5.11872">
        <ele>511</ele>
        <time>2017-07-29T10:39:17+02:00</time>
      </trkpt>
      <trkpt lat="45.24175" lon="5.11835">
        <ele>511</ele>
        <time>2017-07-29T10:39:21+02:00</time>
      </trkpt>
      <trkpt lat="45.24187" lon="5.11799">
        <ele>511</ele>
        <time>2017-07-29T10:39:24+02:00</time>
      </trkpt>
      <trkpt lat="45.24195" lon="5.11767">
        <ele>511</ele>
        <time>2017-07-29T10:39:27+02:00</time>
      </trkpt>
      <trkpt lat="45.24204" lon="5.1173">
        <ele>512</ele>
        <time>2017-07-29T10:39:31+02:00</time>
      </trkpt>
      <trkpt lat="45.24211" lon="5.11697">
        <ele>512</ele>
        <time>2017-07-29T10:39:34+02:00</time>
      </trkpt>
      <trkpt lat="45.24212" lon="5.11665">
        <ele>512</ele>
        <time>2017-07-29T10:39:37+02:00</time>
      </trkpt>
      <trkpt lat="45.24211" lon="5.11628">
        <ele>512</ele>
        <time>2017-07-29T10:39:41+02:00</time>
      </trkpt>
      <trkpt lat="45.24205" lon="5.11595">
        <ele>513</ele>
        <time>2017-07-29T10:39:45+02:00</time>
      </trkpt>
      <trkpt lat="45.24202" lon="5.11559">
        <ele>513</ele>
        <time>2017-07-29T10:39:49+02:00</time>
      </trkpt>
      <trkpt lat="45.24196" lon="5.1152">
        <ele>513</ele>
        <time>2017-07-29T10:39:53+02:00</time>
      </trkpt>
      <trkpt lat="45.24193" lon="5.11485">
        <ele>513</ele>
        <time>2017-07-29T10:39:57+02:00</time>
      </trkpt>
      <trkpt lat="45.24187" lon="5.11452">
        <ele>513</ele>
        <time>2017-07-29T10:40:02+02:00</time>
      </trkpt>
      <trkpt lat="45.24177" lon="5.11424">
        <ele>514</ele>
        <time>2017-07-29T10:40:08+02:00</time>
      </trkpt>
      <trkpt lat="45.24181" lon="5.11392">
        <ele>514</ele>
        <time>2017-07-29T10:40:15+02:00</time>
      </trkpt>
      <trkpt lat="45.24192" lon="5.11361">
        <ele>515</ele>
        <time>2017-07-29T10:40:21+02:00</time>
      </trkpt>
      <trkpt lat="45.24208" lon="5.11334">
        <ele>515</ele>
        <time>2017-07-29T10:40:27+02:00</time>
      </trkpt>
      <trkpt lat="45.24222" lon="5.11305">
        <ele>515</ele>
        <time>2017-07-29T10:40:33+02:00</time>
      </trkpt>
      <trkpt lat="45.24232" lon="5.11269">
        <ele>515</ele>
        <time>2017-07-29T10:40:38+02:00</time>
      </trkpt>
      <trkpt lat="45.24229" lon="5.11233">
        <ele>515</ele>
        <time>2017-07-29T10:40:42+02:00</time>
      </trkpt>
      <trkpt lat="45.24221" lon="5.11197">
        <ele>516</ele>
        <time>2017-07-29T10:40:45+02:00</time>
      </trkpt>
      <trkpt lat="45.24212" lon="5.11158">
        <ele>516</ele>
        <time>2017-07-29T10:40:49+02:00</time>
      </trkpt>
      <trkpt lat="45.24191" lon="5.11142">
        <ele>516</ele>
        <time>2017-07-29T10:40:54+02:00</time>
      </trkpt>
      <trkpt lat="45.2417" lon="5.11157">
        <ele>517</ele>
        <time>2017-07-29T10:41:07+02:00</time>
      </trkpt>
      <trkpt lat="45.24146" lon="5.11169">
        <ele>518</ele>
        <time>2017-07-29T10:41:14+02:00</time>
      </trkpt>
      <trkpt lat="45.2412" lon="5.1118">
        <ele>518</ele>
        <time>2017-07-29T10:41:19+02:00</time>
      </trkpt>
      <trkpt lat="45.24094" lon="5.11176">
        <ele>518</ele>
        <time>2017-07-29T10:41:25+02:00</time>
      </trkpt>
      <trkpt lat="45.24074" lon="5.11155">
        <ele>519</ele>
        <time>2017-07-29T10:41:32+02:00</time>
      </trkpt>
      <trkpt lat="45.24053" lon="5.11133">
        <ele>519</ele>
        <time>2017-07-29T10:41:37+02:00</time>
      </trkpt>
      <trkpt lat="45.24026" lon="5.11127">
        <ele>519</ele>
        <time>2017-07-29T10:41:40+02:00</time>
      </trkpt>
      <trkpt lat="45.24001" lon="5.11115">
        <ele>519</ele>
        <time>2017-07-29T10:41:43+02:00</time>
      </trkpt>
      <trkpt lat="45.23978" lon="5.11099">
        <ele>520</ele>
        <time>2017-07-29T10:41:48+02:00</time>
      </trkpt>
      <trkpt lat="45.23951" lon="5.11112">
        <ele>520</ele>
        <time>2017-07-29T10:41:52+02:00</time>
      </trkpt>
      <trkpt lat="45.23928" lon="5.11122">
        <ele>520</ele>
        <time>2017-07-29T10:41:55+02:00</time>
      </trkpt>
      <trkpt lat="45.23904" lon="5.11123">
        <ele>520</ele>
        <time>2017-07-29T10:41:59+02:00</time>
      </trkpt>
      <trkpt lat="45.23883" lon="5.11105">
        <ele>520</ele>
        <time>2017-07-29T10:42:04+02:00</time>
      </trkpt>
      <trkpt lat="45.23853" lon="5.111">
        <ele>519</ele>
        <time>2017-07-29T10:42:08+02:00</time>
      </trkpt>
      <trkpt lat="45.23826" lon="5.11093">
        <ele>519</ele>
        <time>2017-07-29T10:42:11+02:00</time>
      </trkpt>
      <trkpt lat="45.238" lon="5.11074">
        <ele>520</ele>
        <time>2017-07-29T10:42:16+02:00</time>
      </trkpt>
      <trkpt lat="45.23777" lon="5.11055">
        <ele>520</ele>
        <time>2017-07-29T10:42:20+02:00</time>
      </trkpt>
      <trkpt lat="45.23768" lon="5.11026">
        <ele>521</ele>
        <time>2017-07-29T10:42:34+02:00</time>
      </trkpt>
      <trkpt lat="45.23746" lon="5.11009">
        <ele>522</ele>
        <time>2017-07-29T10:42:47+02:00</time>
      </trkpt>
      <trkpt lat="45.23722" lon="5.10991">
        <ele>523</ele>
        <time>2017-07-29T10:42:53+02:00</time>
      </trkpt>
      <trkpt lat="45.23699" lon="5.10969">
        <ele>523</ele>
        <time>2017-07-29T10:43:00+02:00</time>
      </trkpt>
      <trkpt lat="45.23673" lon="5.10971">
        <ele>524</ele>
        <time>2017-07-29T10:43:03+02:00</time>
      </trkpt>
      <trkpt lat="45.23646" lon="5.1097">
        <ele>524</ele>
        <time>2017-07-29T10:43:06+02:00</time>
      </trkpt>
      <trkpt lat="45.23615" lon="5.1097">
        <ele>524</ele>
        <time>2017-07-29T10:43:09+02:00</time>
      </trkpt>
      <trkpt lat="45.23572" lon="5.10974">
        <ele>525</ele>
        <time>2017-07-29T10:43:13+02:00</time>
      </trkpt>
      <trkpt lat="45.23542" lon="5.10969">
        <ele>525</ele>
        <time>2017-07-29T10:43:16+02:00</time>
      </trkpt>
      <trkpt lat="45.23521" lon="5.10956">
        <ele>526</ele>
        <time>2017-07-29T10:43:25+02:00</time>
      </trkpt>
      <trkpt lat="45.23501" lon="5.10943">
        <ele>527</ele>
        <time>2017-07-29T10:43:30+02:00</time>
      </trkpt>
      <trkpt lat="45.23478" lon="5.10918">
        <ele>528</ele>
        <time>2017-07-29T10:43:38+02:00</time>
      </trkpt>
      <trkpt lat="45.23458" lon="5.10895">
        <ele>527</ele>
        <time>2017-07-29T10:43:43+02:00</time>
      </trkpt>
      <trkpt lat="45.23447" lon="5.10865">
        <ele>527</ele>
        <time>2017-07-29T10:43:51+02:00</time>
      </trkpt>
      <trkpt lat="45.23442" lon="5.10833">
        <ele>527</ele>
        <time>2017-07-29T10:44:06+02:00</time>
      </trkpt>
      <trkpt lat="45.23442" lon="5.10799">
        <ele>527</ele>
        <time>2017-07-29T10:44:17+02:00</time>
      </trkpt>
      <trkpt lat="45.23451" lon="5.10769">
        <ele>527</ele>
        <time>2017-07-29T10:44:26+02:00</time>
      </trkpt>
      <trkpt lat="45.23472" lon="5.10751">
        <ele>527</ele>
        <time>2017-07-29T10:44:36+02:00</time>
      </trkpt>
      <trkpt lat="45.23495" lon="5.10747">
        <ele>528</ele>
        <time>2017-07-29T10:44:41+02:00</time>
      </trkpt>
      <trkpt lat="45.23518" lon="5.10743">
        <ele>529</ele>
        <time>2017-07-29T10:44:48+02:00</time>
      </trkpt>
      <trkpt lat="45.23537" lon="5.10726">
        <ele>529</ele>
        <time>2017-07-29T10:44:54+02:00</time>
      </trkpt>
      <trkpt lat="45.23555" lon="5.10702">
        <ele>530</ele>
        <time>2017-07-29T10:45:00+02:00</time>
      </trkpt>
      <trkpt lat="45.2358" lon="5.10677">
        <ele>530</ele>
        <time>2017-07-29T10:45:05+02:00</time>
      </trkpt>
      <trkpt lat="45.236" lon="5.10661">
        <ele>531</ele>
        <time>2017-07-29T10:45:08+02:00</time>
      </trkpt>
      <trkpt lat="45.23621" lon="5.10644">
        <ele>531</ele>
        <time>2017-07-29T10:45:12+02:00</time>
      </trkpt>
      <trkpt lat="45.23648" lon="5.10634">
        <ele>532</ele>
        <time>2017-07-29T10:45:17+02:00</time>
      </trkpt>
      <trkpt lat="45.23673" lon="5.10634">
        <ele>532</ele>
        <time>2017-07-29T10:45:22+02:00</time>
      </trkpt>
      <trkpt lat="45.237" lon="5.10641">
        <ele>533</ele>
        <time>2017-07-29T10:45:27+02:00</time>
      </trkpt>
      <trkpt lat="45.23714" lon="5.10615">
        <ele>533</ele>
        <time>2017-07-29T10:45:32+02:00</time>
      </trkpt>
      <trkpt lat="45.23732" lon="5.10588">
        <ele>534</ele>
        <time>2017-07-29T10:45:38+02:00</time>
      </trkpt>
      <trkpt lat="45.23748" lon="5.10564">
        <ele>535</ele>
        <time>2017-07-29T10:45:45+02:00</time>
      </trkpt>
      <trkpt lat="45.23763" lon="5.10534">
        <ele>536</ele>
        <time>2017-07-29T10:45:57+02:00</time>
      </trkpt>
      <trkpt lat="45.23779" lon="5.10507">
        <ele>536</ele>
        <time>2017-07-29T10:46:03+02:00</time>
      </trkpt>
      <trkpt lat="45.23788" lon="5.10473">
        <ele>536</ele>
        <time>2017-07-29T10:46:08+02:00</time>
      </trkpt>
      <trkpt lat="45.23797" lon="5.10441">
        <ele>536</ele>
        <time>2017-07-29T10:46:13+02:00</time>
      </trkpt>
      <trkpt lat="45.23807" lon="5.10407">
        <ele>537</ele>
        <time>2017-07-29T10:46:18+02:00</time>
      </trkpt>
      <trkpt lat="45.23804" lon="5.10375">
        <ele>537</ele>
        <time>2017-07-29T10:46:23+02:00</time>
      </trkpt>
      <trkpt lat="45.23803" lon="5.10343">
        <ele>537</ele>
        <time>2017-07-29T10:46:28+02:00</time>
      </trkpt>
      <trkpt lat="45.23804" lon="5.10307">
        <ele>537</ele>
        <time>2017-07-29T10:46:35+02:00</time>
      </trkpt>
      <trkpt lat="45.23798" lon="5.10274">
        <ele>538</ele>
        <time>2017-07-29T10:46:41+02:00</time>
      </trkpt>
      <trkpt lat="45.23797" lon="5.10239">
        <ele>538</ele>
        <time>2017-07-29T10:46:46+02:00</time>
      </trkpt>
      <trkpt lat="45.23797" lon="5.10205">
        <ele>537</ele>
        <time>2017-07-29T10:46:52+02:00</time>
      </trkpt>
      <trkpt lat="45.23798" lon="5.10169">
        <ele>537</ele>
        <time>2017-07-29T10:46:58+02:00</time>
      </trkpt>
      <trkpt lat="45.2379" lon="5.10137">
        <ele>537</ele>
        <time>2017-07-29T10:47:03+02:00</time>
      </trkpt>
      <trkpt lat="45.23785" lon="5.10105">
        <ele>537</ele>
        <time>2017-07-29T10:47:14+02:00</time>
      </trkpt>
      <trkpt lat="45.23773" lon="5.10077">
        <ele>538</ele>
        <time>2017-07-29T10:47:24+02:00</time>
      </trkpt>
      <trkpt lat="45.23749" lon="5.10062">
        <ele>538</ele>
        <time>2017-07-29T10:47:32+02:00</time>
      </trkpt>
      <trkpt lat="45.23736" lon="5.1003">
        <ele>537</ele>
        <time>2017-07-29T10:47:38+02:00</time>
      </trkpt>
      <trkpt lat="45.23733" lon="5.09998">
        <ele>537</ele>
        <time>2017-07-29T10:47:43+02:00</time>
      </trkpt>
      <trkpt lat="45.23736" lon="5.09963">
        <ele>537</ele>
        <time>2017-07-29T10:47:49+02:00</time>
      </trkpt>
      <trkpt lat="45.2373" lon="5.09932">
        <ele>536</ele>
        <time>2017-07-29T10:47:58+02:00</time>
      </trkpt>
      <trkpt lat="45.2372" lon="5.09901">
        <ele>537</ele>
        <time>2017-07-29T10:48:04+02:00</time>
      </trkpt>
      <trkpt lat="45.23709" lon="5.09868">
        <ele>537</ele>
        <time>2017-07-29T10:48:10+02:00</time>
      </trkpt>
      <trkpt lat="45.23702" lon="5.09836">
        <ele>537</ele>
        <time>2017-07-29T10:48:15+02:00</time>
      </trkpt>
      <trkpt lat="45.23688" lon="5.09803">
        <ele>537</ele>
        <time>2017-07-29T10:48:21+02:00</time>
      </trkpt>
      <trkpt lat="45.23673" lon="5.09771">
        <ele>537</ele>
        <time>2017-07-29T10:48:26+02:00</time>
      </trkpt>
      <trkpt lat="45.23664" lon="5.09733">
        <ele>537</ele>
        <time>2017-07-29T10:48:31+02:00</time>
      </trkpt>
      <trkpt lat="45.23663" lon="5.09699">
        <ele>537</ele>
        <time>2017-07-29T10:48:34+02:00</time>
      </trkpt>
      <trkpt lat="45.23658" lon="5.09662">
        <ele>538</ele>
        <time>2017-07-29T10:48:38+02:00</time>
      </trkpt>
      <trkpt lat="45.23657" lon="5.09627">
        <ele>538</ele>
        <time>2017-07-29T10:48:42+02:00</time>
      </trkpt>
      <trkpt lat="45.23657" lon="5.09593">
        <ele>538</ele>
        <time>2017-07-29T10:48:46+02:00</time>
      </trkpt>
      <trkpt lat="45.23653" lon="5.09556">
        <ele>539</ele>
        <time>2017-07-29T10:48:52+02:00</time>
      </trkpt>
      <trkpt lat="45.23657" lon="5.09524">
        <ele>540</ele>
        <time>2017-07-29T10:48:57+02:00</time>
      </trkpt>
      <trkpt lat="45.23674" lon="5.09497">
        <ele>540</ele>
        <time>2017-07-29T10:49:02+02:00</time>
      </trkpt>
      <trkpt lat="45.23694" lon="5.09476">
        <ele>541</ele>
        <time>2017-07-29T10:49:07+02:00</time>
      </trkpt>
      <trkpt lat="45.23701" lon="5.09442">
        <ele>541</ele>
        <time>2017-07-29T10:49:11+02:00</time>
      </trkpt>
      <trkpt lat="45.23698" lon="5.09406">
        <ele>541</ele>
        <time>2017-07-29T10:49:14+02:00</time>
      </trkpt>
      <trkpt lat="45.23688" lon="5.09364">
        <ele>540</ele>
        <time>2017-07-29T10:49:17+02:00</time>
      </trkpt>
      <trkpt lat="45.23683" lon="5.09316">
        <ele>540</ele>
        <time>2017-07-29T10:49:20+02:00</time>
      </trkpt>
      <trkpt lat="45.2368" lon="5.09284">
        <ele>540</ele>
        <time>2017-07-29T10:49:22+02:00</time>
      </trkpt>
      <trkpt lat="45.23669" lon="5.09254">
        <ele>540</ele>
        <time>2017-07-29T10:49:24+02:00</time>
      </trkpt>
      <trkpt lat="45.23654" lon="5.09222">
        <ele>540</ele>
        <time>2017-07-29T10:49:27+02:00</time>
      </trkpt>
      <trkpt lat="45.23663" lon="5.09192">
        <ele>539</ele>
        <time>2017-07-29T10:49:32+02:00</time>
      </trkpt>
      <trkpt lat="45.2368" lon="5.09162">
        <ele>540</ele>
        <time>2017-07-29T10:49:37+02:00</time>
      </trkpt>
      <trkpt lat="45.23696" lon="5.09135">
        <ele>541</ele>
        <time>2017-07-29T10:49:41+02:00</time>
      </trkpt>
      <trkpt lat="45.23715" lon="5.09109">
        <ele>541</ele>
        <time>2017-07-29T10:49:45+02:00</time>
      </trkpt>
      <trkpt lat="45.23737" lon="5.09087">
        <ele>541</ele>
        <time>2017-07-29T10:49:49+02:00</time>
      </trkpt>
      <trkpt lat="45.2376" lon="5.09065">
        <ele>541</ele>
        <time>2017-07-29T10:49:53+02:00</time>
      </trkpt>
      <trkpt lat="45.23779" lon="5.09042">
        <ele>542</ele>
        <time>2017-07-29T10:49:57+02:00</time>
      </trkpt>
      <trkpt lat="45.23799" lon="5.09017">
        <ele>542</ele>
        <time>2017-07-29T10:50:01+02:00</time>
      </trkpt>
      <trkpt lat="45.23821" lon="5.08996">
        <ele>543</ele>
        <time>2017-07-29T10:50:05+02:00</time>
      </trkpt>
      <trkpt lat="45.23842" lon="5.08977">
        <ele>543</ele>
        <time>2017-07-29T10:50:09+02:00</time>
      </trkpt>
      <trkpt lat="45.23864" lon="5.08951">
        <ele>544</ele>
        <time>2017-07-29T10:50:13+02:00</time>
      </trkpt>
      <trkpt lat="45.23886" lon="5.08931">
        <ele>545</ele>
        <time>2017-07-29T10:50:17+02:00</time>
      </trkpt>
      <trkpt lat="45.23904" lon="5.08911">
        <ele>545</ele>
        <time>2017-07-29T10:50:21+02:00</time>
      </trkpt>
      <trkpt lat="45.23925" lon="5.08887">
        <ele>546</ele>
        <time>2017-07-29T10:50:26+02:00</time>
      </trkpt>
      <trkpt lat="45.23944" lon="5.08864">
        <ele>547</ele>
        <time>2017-07-29T10:50:31+02:00</time>
      </trkpt>
      <trkpt lat="45.23941" lon="5.08833">
        <ele>548</ele>
        <time>2017-07-29T10:50:36+02:00</time>
      </trkpt>
      <trkpt lat="45.23941" lon="5.08795">
        <ele>548</ele>
        <time>2017-07-29T10:50:41+02:00</time>
      </trkpt>
      <trkpt lat="45.23942" lon="5.0876">
        <ele>548</ele>
        <time>2017-07-29T10:50:46+02:00</time>
      </trkpt>
      <trkpt lat="45.23947" lon="5.08729">
        <ele>549</ele>
        <time>2017-07-29T10:50:51+02:00</time>
      </trkpt>
      <trkpt lat="45.23953" lon="5.08693">
        <ele>549</ele>
        <time>2017-07-29T10:50:56+02:00</time>
      </trkpt>
      <trkpt lat="45.23955" lon="5.08659">
        <ele>549</ele>
        <time>2017-07-29T10:51:00+02:00</time>
      </trkpt>
      <trkpt lat="45.2396" lon="5.08623">
        <ele>549</ele>
        <time>2017-07-29T10:51:04+02:00</time>
      </trkpt>
      <trkpt lat="45.23963" lon="5.08591">
        <ele>549</ele>
        <time>2017-07-29T10:51:08+02:00</time>
      </trkpt>
      <trkpt lat="45.23968" lon="5.08553">
        <ele>549</ele>
        <time>2017-07-29T10:51:13+02:00</time>
      </trkpt>
      <trkpt lat="45.23965" lon="5.08517">
        <ele>549</ele>
        <time>2017-07-29T10:51:18+02:00</time>
      </trkpt>
      <trkpt lat="45.23956" lon="5.08479">
        <ele>548</ele>
        <time>2017-07-29T10:51:23+02:00</time>
      </trkpt>
      <trkpt lat="45.23954" lon="5.08446">
        <ele>548</ele>
        <time>2017-07-29T10:51:27+02:00</time>
      </trkpt>
      <trkpt lat="45.2395" lon="5.08411">
        <ele>547</ele>
        <time>2017-07-29T10:51:31+02:00</time>
      </trkpt>
      <trkpt lat="45.23945" lon="5.08376">
        <ele>547</ele>
        <time>2017-07-29T10:51:35+02:00</time>
      </trkpt>
      <trkpt lat="45.23939" lon="5.08341">
        <ele>547</ele>
        <time>2017-07-29T10:51:39+02:00</time>
      </trkpt>
      <trkpt lat="45.23928" lon="5.08307">
        <ele>547</ele>
        <time>2017-07-29T10:51:43+02:00</time>
      </trkpt>
      <trkpt lat="45.23918" lon="5.08273">
        <ele>547</ele>
        <time>2017-07-29T10:51:47+02:00</time>
      </trkpt>
      <trkpt lat="45.23905" lon="5.08241">
        <ele>546</ele>
        <time>2017-07-29T10:51:51+02:00</time>
      </trkpt>
      <trkpt lat="45.23896" lon="5.0821">
        <ele>546</ele>
        <time>2017-07-29T10:51:55+02:00</time>
      </trkpt>
      <trkpt lat="45.23886" lon="5.08175">
        <ele>546</ele>
        <time>2017-07-29T10:51:59+02:00</time>
      </trkpt>
      <trkpt lat="45.23873" lon="5.08138">
        <ele>545</ele>
        <time>2017-07-29T10:52:03+02:00</time>
      </trkpt>
      <trkpt lat="45.23863" lon="5.08103">
        <ele>545</ele>
        <time>2017-07-29T10:52:07+02:00</time>
      </trkpt>
      <trkpt lat="45.23858" lon="5.0807">
        <ele>545</ele>
        <time>2017-07-29T10:52:11+02:00</time>
      </trkpt>
      <trkpt lat="45.23856" lon="5.08038">
        <ele>545</ele>
        <time>2017-07-29T10:52:16+02:00</time>
      </trkpt>
      <trkpt lat="45.2385" lon="5.08006">
        <ele>544</ele>
        <time>2017-07-29T10:52:22+02:00</time>
      </trkpt>
      <trkpt lat="45.2384" lon="5.07969">
        <ele>542</ele>
        <time>2017-07-29T10:52:28+02:00</time>
      </trkpt>
      <trkpt lat="45.23839" lon="5.07933">
        <ele>542</ele>
        <time>2017-07-29T10:52:38+02:00</time>
      </trkpt>
      <trkpt lat="45.23832" lon="5.079">
        <ele>541</ele>
        <time>2017-07-29T10:52:46+02:00</time>
      </trkpt>
      <trkpt lat="45.23824" lon="5.07868">
        <ele>540</ele>
        <time>2017-07-29T10:52:53+02:00</time>
      </trkpt>
      <trkpt lat="45.23823" lon="5.07835">
        <ele>540</ele>
        <time>2017-07-29T10:52:59+02:00</time>
      </trkpt>
      <trkpt lat="45.23811" lon="5.07806">
        <ele>540</ele>
        <time>2017-07-29T10:53:05+02:00</time>
      </trkpt>
      <trkpt lat="45.23789" lon="5.07783">
        <ele>539</ele>
        <time>2017-07-29T10:53:11+02:00</time>
      </trkpt>
      <trkpt lat="45.23774" lon="5.07753">
        <ele>539</ele>
        <time>2017-07-29T10:53:16+02:00</time>
      </trkpt>
      <trkpt lat="45.23765" lon="5.07717">
        <ele>539</ele>
        <time>2017-07-29T10:53:21+02:00</time>
      </trkpt>
      <trkpt lat="45.23749" lon="5.07685">
        <ele>539</ele>
        <time>2017-07-29T10:53:26+02:00</time>
      </trkpt>
      <trkpt lat="45.23735" lon="5.07658">
        <ele>539</ele>
        <time>2017-07-29T10:53:31+02:00</time>
      </trkpt>
      <trkpt lat="45.23752" lon="5.07683">
        <ele>539</ele>
        <time>2017-07-29T10:54:04+02:00</time>
      </trkpt>
      <trkpt lat="45.23764" lon="5.07714">
        <ele>537</ele>
        <time>2017-07-29T10:54:15+02:00</time>
      </trkpt>
      <trkpt lat="45.23757" lon="5.07679">
        <ele>537</ele>
        <time>2017-07-29T10:54:28+02:00</time>
      </trkpt>
      <trkpt lat="45.23756" lon="5.07647">
        <ele>536</ele>
        <time>2017-07-29T10:54:35+02:00</time>
      </trkpt>
      <trkpt lat="45.23758" lon="5.07613">
        <ele>536</ele>
        <time>2017-07-29T10:54:41+02:00</time>
      </trkpt>
      <trkpt lat="45.23761" lon="5.0758">
        <ele>535</ele>
        <time>2017-07-29T10:54:46+02:00</time>
      </trkpt>
      <trkpt lat="45.23763" lon="5.07544">
        <ele>535</ele>
        <time>2017-07-29T10:54:51+02:00</time>
      </trkpt>
      <trkpt lat="45.23765" lon="5.07509">
        <ele>534</ele>
        <time>2017-07-29T10:54:56+02:00</time>
      </trkpt>
      <trkpt lat="45.23769" lon="5.0747">
        <ele>534</ele>
        <time>2017-07-29T10:55:01+02:00</time>
      </trkpt>
      <trkpt lat="45.23776" lon="5.07439">
        <ele>533</ele>
        <time>2017-07-29T10:55:07+02:00</time>
      </trkpt>
      <trkpt lat="45.23784" lon="5.07409">
        <ele>533</ele>
        <time>2017-07-29T10:55:20+02:00</time>
      </trkpt>
      <trkpt lat="45.23772" lon="5.07382">
        <ele>532</ele>
        <time>2017-07-29T10:55:34+02:00</time>
      </trkpt>
      <trkpt lat="45.23809" lon="5.07372">
        <ele>530</ele>
        <time>2017-07-29T10:55:46+02:00</time>
      </trkpt>
      <trkpt lat="45.2383" lon="5.07359">
        <ele>529</ele>
        <time>2017-07-29T10:55:55+02:00</time>
      </trkpt>
      <trkpt lat="45.23825" lon="5.07326">
        <ele>527</ele>
        <time>2017-07-29T10:56:11+02:00</time>
      </trkpt>
      <trkpt lat="45.23822" lon="5.07294">
        <ele>525</ele>
        <time>2017-07-29T10:56:24+02:00</time>
      </trkpt>
      <trkpt lat="45.23804" lon="5.07274">
        <ele>524</ele>
        <time>2017-07-29T10:56:31+02:00</time>
      </trkpt>
      <trkpt lat="45.23814" lon="5.07304">
        <ele>518</ele>
        <time>2017-07-29T10:56:55+02:00</time>
      </trkpt>
      <trkpt lat="45.23814" lon="5.0734">
        <ele>517</ele>
        <time>2017-07-29T10:57:01+02:00</time>
      </trkpt>
      <trkpt lat="45.23811" lon="5.07374">
        <ele>516</ele>
        <time>2017-07-29T10:57:06+02:00</time>
      </trkpt>
      <trkpt lat="45.23804" lon="5.07408">
        <ele>514</ele>
        <time>2017-07-29T10:57:11+02:00</time>
      </trkpt>
      <trkpt lat="45.23802" lon="5.0744">
        <ele>510</ele>
        <time>2017-07-29T10:57:22+02:00</time>
      </trkpt>
      <trkpt lat="45.23787" lon="5.07415">
        <ele>505</ele>
        <time>2017-07-29T10:57:54+02:00</time>
      </trkpt>
      <trkpt lat="45.23798" lon="5.07386">
        <ele>504</ele>
        <time>2017-07-29T10:58:15+02:00</time>
      </trkpt>
      <trkpt lat="45.23811" lon="5.07357">
        <ele>504</ele>
        <time>2017-07-29T10:58:21+02:00</time>
      </trkpt>
      <trkpt lat="45.23831" lon="5.07329">
        <ele>504</ele>
        <time>2017-07-29T10:58:27+02:00</time>
      </trkpt>
      <trkpt lat="45.23845" lon="5.07298">
        <ele>503</ele>
        <time>2017-07-29T10:58:33+02:00</time>
      </trkpt>
      <trkpt lat="45.23834" lon="5.07259">
        <ele>503</ele>
        <time>2017-07-29T10:58:39+02:00</time>
      </trkpt>
      <trkpt lat="45.23837" lon="5.07225">
        <ele>503</ele>
        <time>2017-07-29T10:58:45+02:00</time>
      </trkpt>
      <trkpt lat="45.23843" lon="5.07192">
        <ele>502</ele>
        <time>2017-07-29T10:58:52+02:00</time>
      </trkpt>
      <trkpt lat="45.23848" lon="5.07157">
        <ele>501</ele>
        <time>2017-07-29T10:58:58+02:00</time>
      </trkpt>
      <trkpt lat="45.23854" lon="5.07123">
        <ele>501</ele>
        <time>2017-07-29T10:59:03+02:00</time>
      </trkpt>
      <trkpt lat="45.2386" lon="5.0709">
        <ele>501</ele>
        <time>2017-07-29T10:59:08+02:00</time>
      </trkpt>
      <trkpt lat="45.23866" lon="5.07055">
        <ele>501</ele>
        <time>2017-07-29T10:59:13+02:00</time>
      </trkpt>
      <trkpt lat="45.23872" lon="5.07023">
        <ele>501</ele>
        <time>2017-07-29T10:59:18+02:00</time>
      </trkpt>
      <trkpt lat="45.23882" lon="5.0699">
        <ele>501</ele>
        <time>2017-07-29T10:59:24+02:00</time>
      </trkpt>
      <trkpt lat="45.23882" lon="5.06952">
        <ele>501</ele>
        <time>2017-07-29T10:59:30+02:00</time>
      </trkpt>
      <trkpt lat="45.23875" lon="5.06922">
        <ele>500</ele>
        <time>2017-07-29T10:59:39+02:00</time>
      </trkpt>
      <trkpt lat="45.23852" lon="5.06915">
        <ele>500</ele>
        <time>2017-07-29T10:59:49+02:00</time>
      </trkpt>
      <trkpt lat="45.23827" lon="5.06918">
        <ele>498</ele>
        <time>2017-07-29T11:00:05+02:00</time>
      </trkpt>
      <trkpt lat="45.23803" lon="5.06928">
        <ele>497</ele>
        <time>2017-07-29T11:00:18+02:00</time>
      </trkpt>
      <trkpt lat="45.23783" lon="5.06945">
        <ele>498</ele>
        <time>2017-07-29T11:00:25+02:00</time>
      </trkpt>
      <trkpt lat="45.23762" lon="5.06963">
        <ele>498</ele>
        <time>2017-07-29T11:00:34+02:00</time>
      </trkpt>
      <trkpt lat="45.2374" lon="5.06976">
        <ele>498</ele>
        <time>2017-07-29T11:00:42+02:00</time>
      </trkpt>
      <trkpt lat="45.23717" lon="5.06984">
        <ele>498</ele>
        <time>2017-07-29T11:00:55+02:00</time>
      </trkpt>
      <trkpt lat="45.23693" lon="5.06987">
        <ele>498</ele>
        <time>2017-07-29T11:01:05+02:00</time>
      </trkpt>
      <trkpt lat="45.23719" lon="5.06978">
        <ele>500</ele>
        <time>2017-07-29T11:01:53+02:00</time>
      </trkpt>
      <trkpt lat="45.23741" lon="5.06963">
        <ele>500</ele>
        <time>2017-07-29T11:02:00+02:00</time>
      </trkpt>
      <trkpt lat="45.23764" lon="5.06948">
        <ele>500</ele>
        <time>2017-07-29T11:02:05+02:00</time>
      </trkpt>
      <trkpt lat="45.23788" lon="5.0693">
        <ele>501</ele>
        <time>2017-07-29T11:02:10+02:00</time>
      </trkpt>
      <trkpt lat="45.23811" lon="5.06917">
        <ele>501</ele>
        <time>2017-07-29T11:02:15+02:00</time>
      </trkpt>
      <trkpt lat="45.23838" lon="5.06909">
        <ele>501</ele>
        <time>2017-07-29T11:02:21+02:00</time>
      </trkpt>
      <trkpt lat="45.23862" lon="5.06906">
        <ele>502</ele>
        <time>2017-07-29T11:02:27+02:00</time>
      </trkpt>
      <trkpt lat="45.2388" lon="5.06883">
        <ele>502</ele>
        <time>2017-07-29T11:02:35+02:00</time>
      </trkpt>
      <trkpt lat="45.23892" lon="5.06853">
        <ele>503</ele>
        <time>2017-07-29T11:02:41+02:00</time>
      </trkpt>
      <trkpt lat="45.23906" lon="5.06825">
        <ele>503</ele>
        <time>2017-07-29T11:02:46+02:00</time>
      </trkpt>
      <trkpt lat="45.23923" lon="5.06793">
        <ele>503</ele>
        <time>2017-07-29T11:02:51+02:00</time>
      </trkpt>
      <trkpt lat="45.23938" lon="5.06763">
        <ele>503</ele>
        <time>2017-07-29T11:02:55+02:00</time>
      </trkpt>
      <trkpt lat="45.23952" lon="5.06734">
        <ele>504</ele>
        <time>2017-07-29T11:02:59+02:00</time>
      </trkpt>
      <trkpt lat="45.2397" lon="5.06706">
        <ele>504</ele>
        <time>2017-07-29T11:03:03+02:00</time>
      </trkpt>
      <trkpt lat="45.23995" lon="5.06685">
        <ele>504</ele>
        <time>2017-07-29T11:03:07+02:00</time>
      </trkpt>
      <trkpt lat="45.24022" lon="5.06669">
        <ele>504</ele>
        <time>2017-07-29T11:03:11+02:00</time>
      </trkpt>
      <trkpt lat="45.24044" lon="5.06667">
        <ele>504</ele>
        <time>2017-07-29T11:03:14+02:00</time>
      </trkpt>
      <trkpt lat="45.2407" lon="5.06669">
        <ele>505</ele>
        <time>2017-07-29T11:03:17+02:00</time>
      </trkpt>
      <trkpt lat="45.24093" lon="5.06677">
        <ele>504</ele>
        <time>2017-07-29T11:03:20+02:00</time>
      </trkpt>
      <trkpt lat="45.24119" lon="5.06678">
        <ele>504</ele>
        <time>2017-07-29T11:03:23+02:00</time>
      </trkpt>
      <trkpt lat="45.24378" lon="5.06615">
        <ele>485</ele>
        <time>2017-07-29T11:03:56+02:00</time>
      </trkpt>
      <trkpt lat="45.24358" lon="5.06584">
        <ele>496</ele>
        <time>2017-07-29T11:03:59+02:00</time>
      </trkpt>
      <trkpt lat="45.2433" lon="5.06559">
        <ele>497</ele>
        <time>2017-07-29T11:04:01+02:00</time>
      </trkpt>
      <trkpt lat="45.24319" lon="5.06528">
        <ele>495</ele>
        <time>2017-07-29T11:04:03+02:00</time>
      </trkpt>
      <trkpt lat="45.24314" lon="5.06488">
        <ele>494</ele>
        <time>2017-07-29T11:04:07+02:00</time>
      </trkpt>
      <trkpt lat="45.2434" lon="5.06476">
        <ele>488</ele>
        <time>2017-07-29T11:04:19+02:00</time>
      </trkpt>
      <trkpt lat="45.24327" lon="5.06448">
        <ele>480</ele>
        <time>2017-07-29T11:05:27+02:00</time>
      </trkpt>
      <trkpt lat="45.24326" lon="5.06481">
        <ele>480</ele>
        <time>2017-07-29T11:07:31+02:00</time>
      </trkpt>
      <trkpt lat="45.24329" lon="5.06516">
        <ele>478</ele>
        <time>2017-07-29T11:07:46+02:00</time>
      </trkpt>
      <trkpt lat="45.24335" lon="5.06549">
        <ele>476</ele>
        <time>2017-07-29T11:07:58+02:00</time>
      </trkpt>
      <trkpt lat="45.24352" lon="5.06525">
        <ele>475</ele>
        <time>2017-07-29T11:08:18+02:00</time>
      </trkpt>
      <trkpt lat="45.24367" lon="5.06499">
        <ele>474</ele>
        <time>2017-07-29T11:08:24+02:00</time>
      </trkpt>
      <trkpt lat="45.24381" lon="5.06473">
        <ele>474</ele>
        <time>2017-07-29T11:08:30+02:00</time>
      </trkpt>
      <trkpt lat="45.24396" lon="5.06445">
        <ele>473</ele>
        <time>2017-07-29T11:08:37+02:00</time>
      </trkpt>
      <trkpt lat="45.24414" lon="5.0642">
        <ele>472</ele>
        <time>2017-07-29T11:08:43+02:00</time>
      </trkpt>
      <trkpt lat="45.24431" lon="5.06397">
        <ele>472</ele>
        <time>2017-07-29T11:08:49+02:00</time>
      </trkpt>
      <trkpt lat="45.24451" lon="5.0638">
        <ele>470</ele>
        <time>2017-07-29T11:08:56+02:00</time>
      </trkpt>
      <trkpt lat="45.2447" lon="5.06356">
        <ele>469</ele>
        <time>2017-07-29T11:09:02+02:00</time>
      </trkpt>
      <trkpt lat="45.24491" lon="5.06337">
        <ele>468</ele>
        <time>2017-07-29T11:09:08+02:00</time>
      </trkpt>
      <trkpt lat="45.24514" lon="5.06318">
        <ele>468</ele>
        <time>2017-07-29T11:09:14+02:00</time>
      </trkpt>
      <trkpt lat="45.24537" lon="5.063">
        <ele>468</ele>
        <time>2017-07-29T11:09:19+02:00</time>
      </trkpt>
      <trkpt lat="45.24558" lon="5.06283">
        <ele>467</ele>
        <time>2017-07-29T11:09:24+02:00</time>
      </trkpt>
      <trkpt lat="45.24578" lon="5.06267">
        <ele>467</ele>
        <time>2017-07-29T11:09:29+02:00</time>
      </trkpt>
      <trkpt lat="45.24596" lon="5.06246">
        <ele>467</ele>
        <time>2017-07-29T11:09:34+02:00</time>
      </trkpt>
      <trkpt lat="45.24617" lon="5.0622">
        <ele>467</ele>
        <time>2017-07-29T11:09:40+02:00</time>
      </trkpt>
      <trkpt lat="45.2463" lon="5.06187">
        <ele>466</ele>
        <time>2017-07-29T11:09:45+02:00</time>
      </trkpt>
      <trkpt lat="45.24645" lon="5.06158">
        <ele>466</ele>
        <time>2017-07-29T11:09:49+02:00</time>
      </trkpt>
      <trkpt lat="45.24662" lon="5.06131">
        <ele>465</ele>
        <time>2017-07-29T11:09:53+02:00</time>
      </trkpt>
      <trkpt lat="45.24681" lon="5.06107">
        <ele>464</ele>
        <time>2017-07-29T11:09:57+02:00</time>
      </trkpt>
      <trkpt lat="45.24702" lon="5.0609">
        <ele>463</ele>
        <time>2017-07-29T11:10:01+02:00</time>
      </trkpt>
      <trkpt lat="45.24722" lon="5.06073">
        <ele>462</ele>
        <time>2017-07-29T11:10:05+02:00</time>
      </trkpt>
      <trkpt lat="45.24746" lon="5.06058">
        <ele>462</ele>
        <time>2017-07-29T11:10:10+02:00</time>
      </trkpt>
      <trkpt lat="45.24773" lon="5.06037">
        <ele>461</ele>
        <time>2017-07-29T11:10:15+02:00</time>
      </trkpt>
      <trkpt lat="45.24792" lon="5.06018">
        <ele>461</ele>
        <time>2017-07-29T11:10:19+02:00</time>
      </trkpt>
      <trkpt lat="45.2481" lon="5.0599">
        <ele>460</ele>
        <time>2017-07-29T11:10:24+02:00</time>
      </trkpt>
      <trkpt lat="45.24827" lon="5.05965">
        <ele>460</ele>
        <time>2017-07-29T11:10:29+02:00</time>
      </trkpt>
      <trkpt lat="45.24836" lon="5.05934">
        <ele>459</ele>
        <time>2017-07-29T11:10:35+02:00</time>
      </trkpt>
      <trkpt lat="45.24849" lon="5.059">
        <ele>459</ele>
        <time>2017-07-29T11:10:40+02:00</time>
      </trkpt>
      <trkpt lat="45.24857" lon="5.05869">
        <ele>458</ele>
        <time>2017-07-29T11:10:47+02:00</time>
      </trkpt>
      <trkpt lat="45.24865" lon="5.05839">
        <ele>458</ele>
        <time>2017-07-29T11:10:57+02:00</time>
      </trkpt>
      <trkpt lat="45.24877" lon="5.0581">
        <ele>457</ele>
        <time>2017-07-29T11:11:06+02:00</time>
      </trkpt>
      <trkpt lat="45.2489" lon="5.05783">
        <ele>455</ele>
        <time>2017-07-29T11:11:12+02:00</time>
      </trkpt>
      <trkpt lat="45.24899" lon="5.0575">
        <ele>454</ele>
        <time>2017-07-29T11:11:18+02:00</time>
      </trkpt>
      <trkpt lat="45.24915" lon="5.05721">
        <ele>452</ele>
        <time>2017-07-29T11:11:24+02:00</time>
      </trkpt>
      <trkpt lat="45.2493" lon="5.05691">
        <ele>451</ele>
        <time>2017-07-29T11:11:29+02:00</time>
      </trkpt>
      <trkpt lat="45.24941" lon="5.05661">
        <ele>451</ele>
        <time>2017-07-29T11:11:33+02:00</time>
      </trkpt>
      <trkpt lat="45.24954" lon="5.05628">
        <ele>450</ele>
        <time>2017-07-29T11:11:37+02:00</time>
      </trkpt>
      <trkpt lat="45.24966" lon="5.05596">
        <ele>450</ele>
        <time>2017-07-29T11:11:40+02:00</time>
      </trkpt>
      <trkpt lat="45.24975" lon="5.05558">
        <ele>450</ele>
        <time>2017-07-29T11:11:44+02:00</time>
      </trkpt>
      <trkpt lat="45.24982" lon="5.05525">
        <ele>449</ele>
        <time>2017-07-29T11:11:48+02:00</time>
      </trkpt>
      <trkpt lat="45.24988" lon="5.05495">
        <ele>448</ele>
        <time>2017-07-29T11:11:52+02:00</time>
      </trkpt>
      <trkpt lat="45.24994" lon="5.05459">
        <ele>447</ele>
        <time>2017-07-29T11:11:57+02:00</time>
      </trkpt>
      <trkpt lat="45.25003" lon="5.05421">
        <ele>446</ele>
        <time>2017-07-29T11:12:01+02:00</time>
      </trkpt>
      <trkpt lat="45.25013" lon="5.05387">
        <ele>445</ele>
        <time>2017-07-29T11:12:05+02:00</time>
      </trkpt>
      <trkpt lat="45.25024" lon="5.05354">
        <ele>444</ele>
        <time>2017-07-29T11:12:09+02:00</time>
      </trkpt>
      <trkpt lat="45.25036" lon="5.05319">
        <ele>443</ele>
        <time>2017-07-29T11:12:14+02:00</time>
      </trkpt>
      <trkpt lat="45.2505" lon="5.0529">
        <ele>442</ele>
        <time>2017-07-29T11:12:18+02:00</time>
      </trkpt>
      <trkpt lat="45.25064" lon="5.05257">
        <ele>441</ele>
        <time>2017-07-29T11:12:22+02:00</time>
      </trkpt>
      <trkpt lat="45.25077" lon="5.05225">
        <ele>440</ele>
        <time>2017-07-29T11:12:26+02:00</time>
      </trkpt>
      <trkpt lat="45.25091" lon="5.05196">
        <ele>439</ele>
        <time>2017-07-29T11:12:29+02:00</time>
      </trkpt>
      <trkpt lat="45.25105" lon="5.05165">
        <ele>437</ele>
        <time>2017-07-29T11:12:32+02:00</time>
      </trkpt>
      <trkpt lat="45.2512" lon="5.05131">
        <ele>434</ele>
        <time>2017-07-29T11:12:36+02:00</time>
      </trkpt>
      <trkpt lat="45.25138" lon="5.05098">
        <ele>431</ele>
        <time>2017-07-29T11:12:40+02:00</time>
      </trkpt>
      <trkpt lat="45.25154" lon="5.05067">
        <ele>429</ele>
        <time>2017-07-29T11:12:44+02:00</time>
      </trkpt>
      <trkpt lat="45.25167" lon="5.05031">
        <ele>426</ele>
        <time>2017-07-29T11:12:48+02:00</time>
      </trkpt>
      <trkpt lat="45.25177" lon="5.04999">
        <ele>422</ele>
        <time>2017-07-29T11:12:52+02:00</time>
      </trkpt>
      <trkpt lat="45.25183" lon="5.04964">
        <ele>418</ele>
        <time>2017-07-29T11:12:57+02:00</time>
      </trkpt>
      <trkpt lat="45.25184" lon="5.04928">
        <ele>415</ele>
        <time>2017-07-29T11:13:02+02:00</time>
      </trkpt>
      <trkpt lat="45.25185" lon="5.0489">
        <ele>412</ele>
        <time>2017-07-29T11:13:07+02:00</time>
      </trkpt>
      <trkpt lat="45.25186" lon="5.04853">
        <ele>412</ele>
        <time>2017-07-29T11:13:12+02:00</time>
      </trkpt>
      <trkpt lat="45.25186" lon="5.04816">
        <ele>411</ele>
        <time>2017-07-29T11:13:17+02:00</time>
      </trkpt>
      <trkpt lat="45.25187" lon="5.04781">
        <ele>409</ele>
        <time>2017-07-29T11:13:21+02:00</time>
      </trkpt>
      <trkpt lat="45.2519" lon="5.04746">
        <ele>408</ele>
        <time>2017-07-29T11:13:25+02:00</time>
      </trkpt>
      <trkpt lat="45.25193" lon="5.04712">
        <ele>407</ele>
        <time>2017-07-29T11:13:29+02:00</time>
      </trkpt>
      <trkpt lat="45.25188" lon="5.04675">
        <ele>406</ele>
        <time>2017-07-29T11:13:34+02:00</time>
      </trkpt>
      <trkpt lat="45.25186" lon="5.04638">
        <ele>406</ele>
        <time>2017-07-29T11:13:39+02:00</time>
      </trkpt>
      <trkpt lat="45.25191" lon="5.04606">
        <ele>404</ele>
        <time>2017-07-29T11:13:43+02:00</time>
      </trkpt>
      <trkpt lat="45.25193" lon="5.04569">
        <ele>403</ele>
        <time>2017-07-29T11:13:47+02:00</time>
      </trkpt>
      <trkpt lat="45.25192" lon="5.04529">
        <ele>401</ele>
        <time>2017-07-29T11:13:51+02:00</time>
      </trkpt>
      <trkpt lat="45.2519" lon="5.04497">
        <ele>400</ele>
        <time>2017-07-29T11:13:54+02:00</time>
      </trkpt>
      <trkpt lat="45.25188" lon="5.04462">
        <ele>399</ele>
        <time>2017-07-29T11:13:57+02:00</time>
      </trkpt>
      <trkpt lat="45.25182" lon="5.04429">
        <ele>398</ele>
        <time>2017-07-29T11:14:00+02:00</time>
      </trkpt>
      <trkpt lat="45.25173" lon="5.04395">
        <ele>397</ele>
        <time>2017-07-29T11:14:03+02:00</time>
      </trkpt>
      <trkpt lat="45.25164" lon="5.0436">
        <ele>397</ele>
        <time>2017-07-29T11:14:07+02:00</time>
      </trkpt>
      <trkpt lat="45.25158" lon="5.04326">
        <ele>395</ele>
        <time>2017-07-29T11:14:10+02:00</time>
      </trkpt>
      <trkpt lat="45.25153" lon="5.04283">
        <ele>394</ele>
        <time>2017-07-29T11:14:13+02:00</time>
      </trkpt>
      <trkpt lat="45.25153" lon="5.04239">
        <ele>392</ele>
        <time>2017-07-29T11:14:16+02:00</time>
      </trkpt>
      <trkpt lat="45.25154" lon="5.04196">
        <ele>391</ele>
        <time>2017-07-29T11:14:19+02:00</time>
      </trkpt>
      <trkpt lat="45.25154" lon="5.04158">
        <ele>390</ele>
        <time>2017-07-29T11:14:22+02:00</time>
      </trkpt>
      <trkpt lat="45.25153" lon="5.04121">
        <ele>389</ele>
        <time>2017-07-29T11:14:25+02:00</time>
      </trkpt>
      <trkpt lat="45.25152" lon="5.04084">
        <ele>387</ele>
        <time>2017-07-29T11:14:28+02:00</time>
      </trkpt>
      <trkpt lat="45.25155" lon="5.04048">
        <ele>386</ele>
        <time>2017-07-29T11:14:31+02:00</time>
      </trkpt>
      <trkpt lat="45.25148" lon="5.04014">
        <ele>384</ele>
        <time>2017-07-29T11:14:34+02:00</time>
      </trkpt>
      <trkpt lat="45.25121" lon="5.04015">
        <ele>381</ele>
        <time>2017-07-29T11:14:37+02:00</time>
      </trkpt>
      <trkpt lat="45.25096" lon="5.04024">
        <ele>380</ele>
        <time>2017-07-29T11:14:39+02:00</time>
      </trkpt>
      <trkpt lat="45.25069" lon="5.04029">
        <ele>376</ele>
        <time>2017-07-29T11:14:42+02:00</time>
      </trkpt>
      <trkpt lat="45.25048" lon="5.04017">
        <ele>374</ele>
        <time>2017-07-29T11:14:44+02:00</time>
      </trkpt>
      <trkpt lat="45.25029" lon="5.03993">
        <ele>372</ele>
        <time>2017-07-29T11:14:47+02:00</time>
      </trkpt>
      <trkpt lat="45.25021" lon="5.03957">
        <ele>370</ele>
        <time>2017-07-29T11:14:51+02:00</time>
      </trkpt>
      <trkpt lat="45.25024" lon="5.03923">
        <ele>368</ele>
        <time>2017-07-29T11:14:54+02:00</time>
      </trkpt>
      <trkpt lat="45.25031" lon="5.03886">
        <ele>367</ele>
        <time>2017-07-29T11:14:57+02:00</time>
      </trkpt>
      <trkpt lat="45.25036" lon="5.03846">
        <ele>365</ele>
        <time>2017-07-29T11:15:00+02:00</time>
      </trkpt>
      <trkpt lat="45.25043" lon="5.03806">
        <ele>364</ele>
        <time>2017-07-29T11:15:03+02:00</time>
      </trkpt>
      <trkpt lat="45.2505" lon="5.03762">
        <ele>362</ele>
        <time>2017-07-29T11:15:06+02:00</time>
      </trkpt>
      <trkpt lat="45.25055" lon="5.03724">
        <ele>361</ele>
        <time>2017-07-29T11:15:09+02:00</time>
      </trkpt>
      <trkpt lat="45.25071" lon="5.037">
        <ele>359</ele>
        <time>2017-07-29T11:15:13+02:00</time>
      </trkpt>
      <trkpt lat="45.25095" lon="5.03681">
        <ele>357</ele>
        <time>2017-07-29T11:15:17+02:00</time>
      </trkpt>
      <trkpt lat="45.2512" lon="5.03668">
        <ele>354</ele>
        <time>2017-07-29T11:15:21+02:00</time>
      </trkpt>
      <trkpt lat="45.25148" lon="5.03655">
        <ele>352</ele>
        <time>2017-07-29T11:15:25+02:00</time>
      </trkpt>
      <trkpt lat="45.25175" lon="5.03637">
        <ele>351</ele>
        <time>2017-07-29T11:15:29+02:00</time>
      </trkpt>
      <trkpt lat="45.25197" lon="5.03618">
        <ele>349</ele>
        <time>2017-07-29T11:15:32+02:00</time>
      </trkpt>
      <trkpt lat="45.2522" lon="5.03599">
        <ele>347</ele>
        <time>2017-07-29T11:15:35+02:00</time>
      </trkpt>
      <trkpt lat="45.25246" lon="5.03579">
        <ele>345</ele>
        <time>2017-07-29T11:15:38+02:00</time>
      </trkpt>
      <trkpt lat="45.25272" lon="5.03558">
        <ele>341</ele>
        <time>2017-07-29T11:15:41+02:00</time>
      </trkpt>
      <trkpt lat="45.25296" lon="5.03538">
        <ele>339</ele>
        <time>2017-07-29T11:15:44+02:00</time>
      </trkpt>
      <trkpt lat="45.2532" lon="5.0352">
        <ele>337</ele>
        <time>2017-07-29T11:15:47+02:00</time>
      </trkpt>
      <trkpt lat="45.25345" lon="5.03506">
        <ele>335</ele>
        <time>2017-07-29T11:15:50+02:00</time>
      </trkpt>
      <trkpt lat="45.25367" lon="5.03498">
        <ele>334</ele>
        <time>2017-07-29T11:15:53+02:00</time>
      </trkpt>
      <trkpt lat="45.25394" lon="5.0349">
        <ele>332</ele>
        <time>2017-07-29T11:15:57+02:00</time>
      </trkpt>
      <trkpt lat="45.25418" lon="5.03483">
        <ele>330</ele>
        <time>2017-07-29T11:16:01+02:00</time>
      </trkpt>
      <trkpt lat="45.25439" lon="5.0346">
        <ele>329</ele>
        <time>2017-07-29T11:16:07+02:00</time>
      </trkpt>
      <trkpt lat="45.25438" lon="5.03424">
        <ele>325</ele>
        <time>2017-07-29T11:16:12+02:00</time>
      </trkpt>
      <trkpt lat="45.25423" lon="5.03395">
        <ele>323</ele>
        <time>2017-07-29T11:16:16+02:00</time>
      </trkpt>
      <trkpt lat="45.25407" lon="5.03363">
        <ele>320</ele>
        <time>2017-07-29T11:16:20+02:00</time>
      </trkpt>
      <trkpt lat="45.25391" lon="5.03328">
        <ele>318</ele>
        <time>2017-07-29T11:16:24+02:00</time>
      </trkpt>
      <trkpt lat="45.25376" lon="5.03296">
        <ele>317</ele>
        <time>2017-07-29T11:16:28+02:00</time>
      </trkpt>
      <trkpt lat="45.25357" lon="5.03269">
        <ele>314</ele>
        <time>2017-07-29T11:16:32+02:00</time>
      </trkpt>
      <trkpt lat="45.25335" lon="5.03242">
        <ele>313</ele>
        <time>2017-07-29T11:16:36+02:00</time>
      </trkpt>
      <trkpt lat="45.25319" lon="5.0322">
        <ele>311</ele>
        <time>2017-07-29T11:16:39+02:00</time>
      </trkpt>
      <trkpt lat="45.25306" lon="5.03192">
        <ele>310</ele>
        <time>2017-07-29T11:16:42+02:00</time>
      </trkpt>
      <trkpt lat="45.25298" lon="5.03159">
        <ele>308</ele>
        <time>2017-07-29T11:16:46+02:00</time>
      </trkpt>
      <trkpt lat="45.25317" lon="5.03143">
        <ele>308</ele>
        <time>2017-07-29T11:16:58+02:00</time>
      </trkpt>
      <trkpt lat="45.25342" lon="5.03139">
        <ele>310</ele>
        <time>2017-07-29T11:17:05+02:00</time>
      </trkpt>
      <trkpt lat="45.25367" lon="5.03137">
        <ele>311</ele>
        <time>2017-07-29T11:17:11+02:00</time>
      </trkpt>
      <trkpt lat="45.25389" lon="5.03131">
        <ele>312</ele>
        <time>2017-07-29T11:17:16+02:00</time>
      </trkpt>
      <trkpt lat="45.25417" lon="5.03126">
        <ele>313</ele>
        <time>2017-07-29T11:17:21+02:00</time>
      </trkpt>
      <trkpt lat="45.2544" lon="5.03124">
        <ele>314</ele>
        <time>2017-07-29T11:17:25+02:00</time>
      </trkpt>
      <trkpt lat="45.25466" lon="5.03114">
        <ele>314</ele>
        <time>2017-07-29T11:17:29+02:00</time>
      </trkpt>
      <trkpt lat="45.25483" lon="5.03084">
        <ele>313</ele>
        <time>2017-07-29T11:17:32+02:00</time>
      </trkpt>
      <trkpt lat="45.25495" lon="5.03048">
        <ele>313</ele>
        <time>2017-07-29T11:17:35+02:00</time>
      </trkpt>
      <trkpt lat="45.25502" lon="5.03011">
        <ele>311</ele>
        <time>2017-07-29T11:17:38+02:00</time>
      </trkpt>
      <trkpt lat="45.25507" lon="5.02978">
        <ele>309</ele>
        <time>2017-07-29T11:17:41+02:00</time>
      </trkpt>
      <trkpt lat="45.25509" lon="5.0294">
        <ele>306</ele>
        <time>2017-07-29T11:17:45+02:00</time>
      </trkpt>
      <trkpt lat="45.25513" lon="5.02908">
        <ele>305</ele>
        <time>2017-07-29T11:17:49+02:00</time>
      </trkpt>
      <trkpt lat="45.25528" lon="5.02884">
        <ele>305</ele>
        <time>2017-07-29T11:18:03+02:00</time>
      </trkpt>
      <trkpt lat="45.25537" lon="5.02855">
        <ele>303</ele>
        <time>2017-07-29T11:18:16+02:00</time>
      </trkpt>
    </trkseg>
  </trk>
</gpx>